MDI2 / G-IASA 7700 Squawk Report (18th of June, 2019)

Time Lat Lon Altitude Heading Speed Vertical Rate
2019-06-18 15:14:41 GMT 53.198090 -1.431440 26,000 345 287 0
We lost coverage of the aircraft here for a total of 14 minutes
2019-06-18 15:01:07 GMT 52.185562 -1.016922 24,900 351 214 896
2019-06-18 15:01:00 GMT 52.181351 -1.015778 24,800 352 212 1216
2019-06-18 15:00:57 GMT 52.181351 -1.015778 24,800 352 213 832
2019-06-18 15:00:51 GMT 52.174988 -1.014175 24,700 352 212 1152
2019-06-18 15:00:48 GMT 52.172211 -1.013489 24,700 352 212 1216
2019-06-18 15:00:42 GMT 52.164158 -1.011527 24,600 352 212 1216
2019-06-18 15:00:36 GMT 52.159966 -1.010507 23,200 352 212 1216
2019-06-18 15:00:33 GMT 52.156197 -1.009644 24,400 352 212 1216
2019-06-18 15:00:30 GMT 52.155121 -1.009369 24,300 352 214 1280
2019-06-18 15:00:26 GMT 52.151215 -1.008466 24,100 352 214 1280
2019-06-18 15:00:23 GMT 52.148281 -1.007760 24,200 352 215 1280
2019-06-18 15:00:20 GMT 52.144650 -1.006897 24,000 352 215 1280
2019-06-18 15:00:16 GMT 52.140972 -1.006112 24,000 352 216 1216
2019-06-18 15:00:13 GMT 52.138321 -1.005478 24,000 352 216 1152
2019-06-18 15:00:10 GMT 52.135529 -1.004791 23,900 352 216 1024
2019-06-18 15:00:07 GMT 52.132595 -1.004072 23,900 352 216 1088
2019-06-18 15:00:04 GMT 52.129211 -1.003189 22,600 351 214 1152
2019-06-18 15:00:01 GMT 52.126556 -1.002579 23,800 351 215 1024
2019-06-18 14:59:58 GMT 52.122711 -1.001511 23,700 351 214 1088
2019-06-18 14:59:55 GMT 52.120770 -1.001011 23,700 351 214 1152
2019-06-18 14:59:52 GMT 52.116852 -0.999985 23,600 351 215 1216
2019-06-18 14:59:49 GMT 52.114765 -0.999363 23,500 351 215 1216
2019-06-18 14:59:46 GMT 52.112320 -0.998688 23,300 350 214 1152
2019-06-18 14:59:43 GMT 52.108711 -0.997637 23,400 350 214 1152
2019-06-18 14:59:40 GMT 52.106049 -0.996857 23,400 350 215 1152
2019-06-18 14:59:37 GMT 52.103165 -0.996017 23,300 350 214 1152
2019-06-18 14:59:34 GMT 52.100704 -0.995283 23,100 349 214 1152
2019-06-18 14:59:31 GMT 52.094700 -0.993321 23,100 349 214 1152
2019-06-18 14:59:25 GMT 52.091675 -0.992355 23,100 349 213 1216
2019-06-18 14:59:22 GMT 52.089386 -0.991592 23,000 349 213 1280
2019-06-18 14:59:19 GMT 52.085018 -0.990104 22,900 348 215 1408
2019-06-18 14:59:16 GMT 52.083023 -0.989380 22,900 348 213 1280
2019-06-18 14:59:13 GMT 52.079247 -0.988063 22,700 348 214 1408
2019-06-18 14:59:10 GMT 52.076477 -0.987091 22,700 348 214 1408
2019-06-18 14:59:07 GMT 52.071350 -0.985260 22,700 348 214 1472
2019-06-18 14:59:01 GMT 52.067871 -0.984039 22,500 348 216 1408
2019-06-18 14:58:58 GMT 52.065399 -0.983200 22,500 348 216 1408
2019-06-18 14:58:55 GMT 52.061508 -0.981750 22,400 352 224 1600
2019-06-18 14:58:52 GMT 52.059834 -0.981158 22,300 348 217 1408
2019-06-18 14:58:49 GMT 52.056427 -0.979919 22,300 348 217 1408
2019-06-18 14:58:46 GMT 52.053680 -0.978928 22,300 348 217 1472
2019-06-18 14:58:43 GMT 52.050800 -0.977940 22,100 10 241 1536
2019-06-18 14:58:40 GMT 52.044571 -0.975876 21,500 351 223 1536
2019-06-18 14:58:37 GMT 52.041492 -0.974880 21,900 350 221 1536
2019-06-18 14:58:34 GMT 52.041492 -0.974880 21,900 350 221 1472
2019-06-18 14:58:31 GMT 52.038757 -0.974121 21,800 352 225 1600
2019-06-18 14:58:28 GMT 52.034500 -0.972900 21,700 352 223 1600
2019-06-18 14:58:25 GMT 52.031845 -0.972290 21,700 353 225 1600
2019-06-18 14:58:22 GMT 52.029373 -0.971756 21,200 12 241 1536
2019-06-18 14:58:19 GMT 52.025246 -0.971034 21,600 355 228 1600
2019-06-18 14:58:16 GMT 52.023335 -0.970878 21,300 0 234 1600
2019-06-18 14:58:13 GMT 52.019470 -0.970799 21,200 12 242 1536
2019-06-18 14:58:09 GMT 52.014912 -0.971662 21,300 9 240 1600
2019-06-18 14:58:06 GMT 52.011604 -0.972761 21,000 13 242 960
2019-06-18 14:58:03 GMT 52.008904 -0.973781 21,200 13 243 1536
2019-06-18 14:58:00 GMT 52.005157 -0.975189 21,000 13 244 1472
2019-06-18 14:57:57 GMT 52.001404 -0.976639 21,000 13 245 1408
2019-06-18 14:57:54 GMT 51.998749 -0.977631 21,000 13 245 1280
2019-06-18 14:57:51 GMT 51.992657 -0.979902 20,800 13 245 1088
2019-06-18 14:57:48 GMT 51.992657 -0.979902 20,800 13 245 1024
2019-06-18 14:57:45 GMT 51.989914 -0.980988 20,800 13 245 960
2019-06-18 14:57:42 GMT 51.985931 -0.982513 20,600 13 244 640
2019-06-18 14:57:39 GMT 51.982407 -0.983887 20,500 13 245 896
2019-06-18 14:57:35 GMT 51.978836 -0.985260 20,600 13 245 896
2019-06-18 14:57:32 GMT 51.973755 -0.987244 20,500 13 244 768
2019-06-18 14:57:29 GMT 51.971329 -0.988159 20,600 13 242 960
2019-06-18 14:57:26 GMT 51.967392 -0.989685 20,500 13 244 704
2019-06-18 14:57:23 GMT 51.965424 -0.990496 20,500 13 244 704
2019-06-18 14:57:20 GMT 51.957962 -0.993347 20,400 13 242 896
2019-06-18 14:57:14 GMT 51.955124 -0.994415 20,400 13 242 960
2019-06-18 14:57:11 GMT 51.951321 -0.995911 19,900 11 241 1024
2019-06-18 14:57:08 GMT 51.947178 -0.997559 20,200 13 242 960
2019-06-18 14:57:05 GMT 51.944756 -0.998422 20,200 13 243 960
2019-06-18 14:57:02 GMT 51.941574 -0.999680 20,000 13 243 896
2019-06-18 14:56:59 GMT 51.939075 -1.000619 20,100 13 243 896
2019-06-18 14:56:56 GMT 51.935261 -1.002110 19,300 11 241 960
2019-06-18 14:56:53 GMT 51.932514 -1.003130 20,000 13 243 896
2019-06-18 14:56:50 GMT 51.925762 -1.005641 20,000 12 242 832
2019-06-18 14:56:44 GMT 51.919849 -1.007760 19,900 12 241 896
2019-06-18 14:56:38 GMT 51.916672 -1.008911 19,800 12 241 1024
2019-06-18 14:56:35 GMT 51.912781 -1.010361 19,700 12 241 1024
2019-06-18 14:56:32 GMT 51.909142 -1.011605 19,700 11 241 1024
2019-06-18 14:56:29 GMT 51.906303 -1.012626 19,700 12 241 960
2019-06-18 14:56:25 GMT 51.902161 -1.014038 19,600 11 241 1024
2019-06-18 14:56:22 GMT 51.898342 -1.015294 19,500 11 240 960
2019-06-18 14:56:19 GMT 51.895084 -1.016392 19,400 11 240 960
2019-06-18 14:56:16 GMT 51.891685 -1.017532 19,400 11 240 960
2019-06-18 14:56:13 GMT 51.888336 -1.018685 19,200 11 241 896
2019-06-18 14:56:10 GMT 51.885681 -1.019502 19,300 11 241 896
2019-06-18 14:56:07 GMT 51.881260 -1.021042 18,900 11 240 896
2019-06-18 14:56:04 GMT 51.878418 -1.021957 19,300 11 240 896
2019-06-18 14:56:01 GMT 51.875160 -1.023102 19,200 12 234 896
2019-06-18 14:55:58 GMT 51.867920 -1.025589 19,000 12 239 960
2019-06-18 14:55:54 GMT 51.867920 -1.025589 19,100 12 239 1024
2019-06-18 14:55:51 GMT 51.864780 -1.026611 19,100 12 239 960
2019-06-18 14:55:48 GMT 51.860825 -1.028038 19,000 12 238 896
2019-06-18 14:55:45 GMT 51.857574 -1.029152 19,000 12 238 896
2019-06-18 14:55:41 GMT 51.853500 -1.030562 18,900 12 237 832
2019-06-18 14:55:38 GMT 51.850479 -1.031676 18,900 12 237 896
2019-06-18 14:55:35 GMT 51.846531 -1.033096 18,800 12 236 832
2019-06-18 14:55:32 GMT 51.844940 -1.033606 18,800 12 235 896
2019-06-18 14:55:29 GMT 51.841412 -1.034927 18,800 12 234 896
2019-06-18 14:55:26 GMT 51.837826 -1.036224 18,700 12 234 896
2019-06-18 14:55:23 GMT 51.834091 -1.037540 18,700 12 234 896
2019-06-18 14:55:20 GMT 51.831985 -1.038282 18,600 12 234 960
2019-06-18 14:55:17 GMT 51.825348 -1.040726 18,500 12 233 960
2019-06-18 14:55:14 GMT 51.825348 -1.040726 18,500 12 233 960
2019-06-18 14:55:11 GMT 51.821640 -1.042142 18,400 12 233 960
2019-06-18 14:55:08 GMT 51.817841 -1.043478 18,400 12 233 960
2019-06-18 14:55:04 GMT 51.815201 -1.044464 18,400 12 232 896
2019-06-18 14:55:01 GMT 51.812164 -1.045631 18,300 13 233 960
2019-06-18 14:54:58 GMT 51.808640 -1.046967 18,300 13 232 960
2019-06-18 14:54:55 GMT 51.805378 -1.048203 18,000 13 229 1024
2019-06-18 14:54:52 GMT 51.801189 -1.049805 18,200 13 231 896
2019-06-18 14:54:49 GMT 51.799026 -1.050679 18,100 13 231 896
2019-06-18 14:54:46 GMT 51.796021 -1.051865 18,100 13 228 896
2019-06-18 14:54:43 GMT 51.791786 -1.053543 18,100 13 228 896
2019-06-18 14:54:40 GMT 51.790108 -1.054153 18,000 13 229 1024
2019-06-18 14:54:37 GMT 51.786293 -1.055679 18,000 13 229 1024
2019-06-18 14:54:34 GMT 51.782616 -1.057205 17,900 13 229 1088
2019-06-18 14:54:31 GMT 51.780624 -1.057954 17,800 14 229 960
2019-06-18 14:54:28 GMT 51.776424 -1.059647 17,800 13 228 896
2019-06-18 14:54:25 GMT 51.774490 -1.060478 17,700 13 227 768
2019-06-18 14:54:22 GMT 51.770882 -1.061935 17,700 14 225 832
2019-06-18 14:54:19 GMT 51.767624 -1.063232 17,700 14 225 896
2019-06-18 14:54:16 GMT 51.764694 -1.064412 17,500 2 223 0
2019-06-18 14:54:13 GMT 51.762268 -1.065377 17,600 13 225 1152
2019-06-18 14:54:10 GMT 51.759758 -1.066360 17,500 13 225 1088
2019-06-18 14:54:07 GMT 51.756042 -1.067827 17,400 13 223 1152
2019-06-18 14:54:04 GMT 51.753204 -1.068866 17,300 11 223 1280
2019-06-18 14:54:01 GMT 51.749657 -1.070175 17,400 12 223 1216
2019-06-18 14:53:58 GMT 51.746933 -1.071093 17,300 11 223 1280
2019-06-18 14:53:55 GMT 51.743370 -1.072159 17,300 10 223 1216
2019-06-18 14:53:52 GMT 51.740662 -1.072949 17,200 9 222 1088
2019-06-18 14:53:49 GMT 51.737507 -1.073837 17,100 8 222 1088
2019-06-18 14:53:46 GMT 51.734940 -1.074359 17,000 8 222 1088
2019-06-18 14:53:43 GMT 51.731506 -1.075101 17,000 5 221 1216
2019-06-18 14:53:39 GMT 51.727634 -1.075668 16,900 3 221 1280
2019-06-18 14:53:36 GMT 51.723541 -1.075992 16,800 1 221 1408
2019-06-18 14:53:33 GMT 51.721397 -1.076050 16,700 1 222 1536
2019-06-18 14:53:30 GMT 51.714371 -1.076355 16,700 1 224 1472
2019-06-18 14:53:27 GMT 51.714371 -1.076355 16,600 2 222 1728
2019-06-18 14:53:24 GMT 51.711483 -1.076508 16,400 1 225 1344
2019-06-18 14:53:21 GMT 51.709076 -1.076586 16,500 1 225 1344
2019-06-18 14:53:15 GMT 51.702545 -1.076889 16,300 2 226 1152
2019-06-18 14:53:12 GMT 51.699326 -1.077106 16,300 2 226 1152
2019-06-18 14:53:09 GMT 51.697098 -1.077194 16,200 2 225 960
2019-06-18 14:53:06 GMT 51.693466 -1.077402 16,200 2 225 1024
2019-06-18 14:53:03 GMT 51.690536 -1.077625 16,200 2 225 960
2019-06-18 14:53:00 GMT 51.686508 -1.077848 16,100 2 224 896
2019-06-18 14:52:57 GMT 51.684437 -1.077957 16,100 2 223 896
2019-06-18 14:52:54 GMT 51.679230 -1.078293 16,000 2 221 896
2019-06-18 14:52:51 GMT 51.677082 -1.078491 16,000 2 220 896
2019-06-18 14:52:48 GMT 51.670795 -1.078873 15,900 2 219 1088
2019-06-18 14:52:45 GMT 51.670795 -1.078873 15,900 2 219 1024
2019-06-18 14:52:42 GMT 51.668060 -1.079110 15,700 2 219 1600
2019-06-18 14:52:39 GMT 51.666046 -1.079258 15,800 2 218 1344
2019-06-18 14:52:36 GMT 51.662842 -1.079481 15,600 2 219 1664
2019-06-18 14:52:33 GMT 51.659672 -1.079712 15,500 2 236 2432
2019-06-18 14:52:30 GMT 51.656113 -1.079926 15,500 2 223 1792
2019-06-18 14:52:27 GMT 51.652966 -1.080170 15,400 2 222 1792
2019-06-18 14:52:23 GMT 51.649521 -1.080399 14,700 2 236 2432
2019-06-18 14:52:20 GMT 51.645889 -1.080627 14,500 1 264 1216
2019-06-18 14:52:14 GMT 51.638908 -1.081085 15,000 2 239 2624
2019-06-18 14:52:11 GMT 51.637184 -1.081238 14,900 2 234 2304
2019-06-18 14:52:08 GMT 51.633362 -1.081485 14,600 2 244 2624
2019-06-18 14:52:04 GMT 51.629379 -1.081708 14,600 1 248 2496
2019-06-18 14:52:01 GMT 51.626106 -1.081924 14,500 1 250 2368
2019-06-18 14:51:58 GMT 51.621140 -1.082153 14,300 1 253 2176
2019-06-18 14:51:55 GMT 51.618191 -1.082306 14,300 1 255 2048
2019-06-18 14:51:52 GMT 51.612000 -1.082535 14,000 0 265 512
2019-06-18 14:51:46 GMT 51.608089 -1.082687 14,100 1 263 1408
2019-06-18 14:51:43 GMT 51.604458 -1.082764 14,000 0 265 512
2019-06-18 14:51:40 GMT 51.600502 -1.082916 14,000 0 265 384
2019-06-18 14:51:37 GMT 51.596970 -1.082970 14,000 0 265 192
2019-06-18 14:51:34 GMT 51.593079 -1.083044 14,000 0 263 0
2019-06-18 14:51:31 GMT 51.590149 -1.083118 14,000 0 260 0
2019-06-18 14:51:28 GMT 51.585697 -1.083145 14,000 0 258 64
2019-06-18 14:51:25 GMT 51.581882 -1.083221 14,000 0 254 0
2019-06-18 14:51:22 GMT 51.578934 -1.083267 14,000 0 254 0
2019-06-18 14:51:19 GMT 51.575409 -1.083341 14,000 0 250 192
2019-06-18 14:51:16 GMT 51.571198 -1.083489 13,900 0 249 192
2019-06-18 14:51:12 GMT 51.563873 -1.083712 13,800 1 242 1344
2019-06-18 14:51:09 GMT 51.563873 -1.083712 13,900 1 246 384
2019-06-18 14:51:06 GMT 51.556324 -1.083984 13,900 1 244 512
2019-06-18 14:51:03 GMT 51.556324 -1.083984 13,900 1 243 640
2019-06-18 14:50:59 GMT 51.552273 -1.084137 13,800 1 242 1280
2019-06-18 14:50:56 GMT 51.549576 -1.084290 13,700 1 242 1280
2019-06-18 14:50:53 GMT 51.542084 -1.084677 13,600 2 243 1920
2019-06-18 14:50:50 GMT 51.542084 -1.084677 13,600 2 246 1920
2019-06-18 14:50:47 GMT 51.539986 -1.084747 13,500 2 244 1984
2019-06-18 14:50:44 GMT 51.536354 -1.084976 13,200 2 250 1600
2019-06-18 14:50:41 GMT 51.532909 -1.085205 12,900 1 258 1344
2019-06-18 14:50:38 GMT 51.528767 -1.085434 13,200 1 256 1280
2019-06-18 14:50:35 GMT 51.525505 -1.085587 13,100 1 255 1408
2019-06-18 14:50:32 GMT 51.521782 -1.085815 13,100 1 254 1472
2019-06-18 14:50:28 GMT 51.517410 -1.086013 13,000 1 256 1344
2019-06-18 14:50:25 GMT 51.512890 -1.086273 13,000 1 257 1280
2019-06-18 14:50:22 GMT 51.509678 -1.086426 12,900 1 259 1344
2019-06-18 14:50:19 GMT 51.506840 -1.086578 12,800 1 259 1344
2019-06-18 14:50:16 GMT 51.502045 -1.086731 12,700 1 261 1216
2019-06-18 14:50:12 GMT 51.496971 -1.086960 12,500 1 265 1408
2019-06-18 14:50:09 GMT 51.494038 -1.087112 12,600 1 263 1344
2019-06-18 14:50:06 GMT 51.490997 -1.087201 12,500 1 265 1408
2019-06-18 14:50:03 GMT 51.486450 -1.087341 12,500 1 266 1408
2019-06-18 14:50:00 GMT 51.483517 -1.087418 12,400 1 267 1408
2019-06-18 14:49:57 GMT 51.480026 -1.087494 12,400 1 269 1280
2019-06-18 14:49:54 GMT 51.474655 -1.087646 12,300 0 280 -64
2019-06-18 14:49:50 GMT 51.469738 -1.087723 12,200 0 275 1088
2019-06-18 14:49:47 GMT 51.467056 -1.087795 12,200 0 276 1024
2019-06-18 14:49:44 GMT 51.462849 -1.087875 12,100 0 277 1088
2019-06-18 14:49:41 GMT 51.454655 -1.087952 12,000 0 279 1216
2019-06-18 14:49:38 GMT 51.454655 -1.087952 12,000 0 280 896
2019-06-18 14:49:35 GMT 51.451534 -1.088028 12,000 0 280 -128
2019-06-18 14:49:32 GMT 51.446880 -1.088028 12,000 0 280 -64
2019-06-18 14:49:29 GMT 51.443893 -1.088092 12,000 0 279 0
2019-06-18 14:49:26 GMT 51.439243 -1.088181 12,000 0 279 0
2019-06-18 14:49:23 GMT 51.436386 -1.088166 12,000 0 278 0
2019-06-18 14:49:20 GMT 51.431656 -1.088257 12,000 0 278 0
2019-06-18 14:49:17 GMT 51.427841 -1.088333 12,000 0 276 0
2019-06-18 14:49:14 GMT 51.421097 -1.088463 12,000 0 268 64
2019-06-18 14:49:11 GMT 51.416901 -1.088562 12,000 0 274 0
2019-06-18 14:49:08 GMT 51.416901 -1.088562 12,000 0 273 128
2019-06-18 14:49:05 GMT 51.412384 -1.088562 12,000 0 272 64
2019-06-18 14:49:02 GMT 51.408848 -1.088638 12,000 0 270 -128
2019-06-18 14:48:59 GMT 51.405716 -1.088686 12,000 0 269 128
2019-06-18 14:48:56 GMT 51.402142 -1.088715 12,000 0 267 -128
2019-06-18 14:48:53 GMT 51.398930 -1.088715 12,000 0 266 -128
2019-06-18 14:48:49 GMT 51.390015 -1.088834 12,000 0 263 -192
2019-06-18 14:48:43 GMT 51.386501 -1.088867 12,000 0 257 64
2019-06-18 14:48:40 GMT 51.378448 -1.088943 12,000 0 256 -64
2019-06-18 14:48:37 GMT 51.378448 -1.088943 12,000 0 254 512
2019-06-18 14:48:34 GMT 51.375839 -1.089020 12,000 0 252 448
2019-06-18 14:48:31 GMT 51.370720 -1.089020 12,000 0 253 512
2019-06-18 14:48:28 GMT 51.368271 -1.089057 11,900 0 250 -128
2019-06-18 14:48:24 GMT 51.364380 -1.089057 11,900 0 248 320
2019-06-18 14:48:21 GMT 51.356987 -1.088791 11,900 359 244 -320
2019-06-18 14:48:18 GMT 51.356987 -1.088791 11,900 359 240 -64
2019-06-18 14:48:15 GMT 51.352890 -1.088686 11,900 359 233 -64
2019-06-18 14:48:12 GMT 51.350143 -1.088562 8,900 358 229 -64
2019-06-18 14:48:08 GMT 51.343349 -1.088181 11,900 358 226 192
2019-06-18 14:48:02 GMT 51.338928 -1.087795 12,000 357 218 -576
2019-06-18 14:47:59 GMT 51.337555 -1.087646 12,000 357 210 -1152
2019-06-18 14:47:56 GMT 51.334305 -1.087350 12,000 358 201 640
2019-06-18 14:47:53 GMT 51.331009 -1.087127 12,000 358 201 640
2019-06-18 14:47:50 GMT 51.327896 -1.086904 11,900 358 196 1920
2019-06-18 14:47:47 GMT 51.325974 -1.086756 11,800 358 196 1792
2019-06-18 14:47:43 GMT 51.321838 -1.086502 11,700 358 198 2432
2019-06-18 14:47:40 GMT 51.318535 -1.086273 11,500 358 200 2560
2019-06-18 14:47:37 GMT 51.316589 -1.086162 11,500 359 202 3008
2019-06-18 14:47:34 GMT 51.314438 -1.086044 11,200 359 211 3712
2019-06-18 14:47:31 GMT 51.311180 -1.085892 11,200 359 220 4416
2019-06-18 14:47:28 GMT 51.308121 -1.085716 10,100 359 241 -64
2019-06-18 14:47:25 GMT 51.304688 -1.085568 10,500 359 234 4096
2019-06-18 14:47:22 GMT 51.302151 -1.085434 10,400 359 235 4032
2019-06-18 14:47:19 GMT 51.297539 -1.085281 10,000 0 257 1728
2019-06-18 14:47:16 GMT 51.294235 -1.085205 10,100 0 251 2880
2019-06-18 14:47:12 GMT 51.290836 -1.085205 10,000 359 255 256
2019-06-18 14:47:09 GMT 51.285950 -1.085129 10,000 359 255 256
2019-06-18 14:47:06 GMT 51.280060 -1.084900 10,000 359 252 -64
2019-06-18 14:47:00 GMT 51.276627 -1.084751 10,000 359 254 128
2019-06-18 14:46:57 GMT 51.272690 -1.084603 10,000 359 252 -64
2019-06-18 14:46:54 GMT 51.268982 -1.084380 10,000 359 248 -128
2019-06-18 14:46:51 GMT 51.262894 -1.084083 10,000 359 239 -64
2019-06-18 14:46:48 GMT 51.262894 -1.084083 10,000 359 240 0
2019-06-18 14:46:45 GMT 51.258762 -1.083908 10,000 8 208 1600
2019-06-18 14:46:41 GMT 51.255020 -1.083712 10,000 359 236 0
2019-06-18 14:46:38 GMT 51.250809 -1.083489 10,000 359 230 -192
2019-06-18 14:46:35 GMT 51.243942 -1.083267 10,000 359 223 256
2019-06-18 14:46:32 GMT 51.243942 -1.083267 10,000 0 216 640
2019-06-18 14:46:29 GMT 51.242294 -1.083193 9,900 0 221 448
2019-06-18 14:46:26 GMT 51.238632 -1.083118 9,900 0 217 640
2019-06-18 14:46:23 GMT 51.235535 -1.083145 9,800 0 213 832
2019-06-18 14:46:20 GMT 51.232601 -1.083145 9,800 1 212 896
2019-06-18 14:46:14 GMT 51.227325 -1.083415 9,700 4 209 1408
2019-06-18 14:46:11 GMT 51.224350 -1.083786 9,600 6 208 1536
2019-06-18 14:46:08 GMT 51.221661 -1.084366 9,500 11 207 1728
2019-06-18 14:46:05 GMT 51.218773 -1.085358 9,400 17 207 1856
2019-06-18 14:46:02 GMT 51.216339 -1.086681 9,400 29 205 1856
2019-06-18 14:45:59 GMT 51.213840 -1.088638 9,300 31 205 1792
2019-06-18 14:45:56 GMT 51.210442 -1.091995 9,100 34 205 2048
2019-06-18 14:45:53 GMT 51.208626 -1.093979 9,000 34 205 2112
2019-06-18 14:45:50 GMT 51.206112 -1.096725 9,000 34 207 2368
2019-06-18 14:45:47 GMT 51.203888 -1.099152 8,800 34 209 2560
2019-06-18 14:45:44 GMT 51.201645 -1.101608 8,700 34 211 2368
2019-06-18 14:45:41 GMT 51.198990 -1.104584 8,700 35 215 2560
2019-06-18 14:45:38 GMT 51.196793 -1.107021 8,400 35 188 1600
2019-06-18 14:45:35 GMT 51.190521 -1.114073 8,300 35 221 2688
2019-06-18 14:45:31 GMT 51.190521 -1.114073 8,200 35 227 2304
2019-06-18 14:45:28 GMT 51.187771 -1.117172 8,000 35 231 2112
2019-06-18 14:45:25 GMT 51.185623 -1.119640 8,000 35 233 2048
2019-06-18 14:45:21 GMT 51.182789 -1.122818 7,900 35 234 1920
2019-06-18 14:45:18 GMT 51.179436 -1.126633 7,600 35 235 1472
2019-06-18 14:45:15 GMT 51.176132 -1.130371 7,700 35 236 1344
2019-06-18 14:45:11 GMT 51.173851 -1.133041 7,600 35 237 1280
2019-06-18 14:45:08 GMT 51.171059 -1.136169 7,500 36 237 1280
2019-06-18 14:45:05 GMT 51.164635 -1.143723 7,500 36 237 1216
2019-06-18 14:45:02 GMT 51.164635 -1.143723 7,400 36 237 1344
2019-06-18 14:44:58 GMT 51.162354 -1.146469 7,300 36 237 1408
2019-06-18 14:44:55 GMT 51.155834 -1.154251 7,200 37 237 1024
2019-06-18 14:44:51 GMT 51.155834 -1.154251 7,200 37 237 1024
2019-06-18 14:44:48 GMT 51.152901 -1.157837 7,200 37 237 1024
2019-06-18 14:44:45 GMT 51.149643 -1.161730 7,100 37 236 1024
2019-06-18 14:44:42 GMT 51.147995 -1.163734 7,000 35 214 192
2019-06-18 14:44:39 GMT 51.145222 -1.167145 7,000 35 214 192
2019-06-18 14:44:35 GMT 51.138977 -1.174721 7,000 37 234 64
2019-06-18 14:44:32 GMT 51.138977 -1.174721 7,000 37 233 64
2019-06-18 14:44:29 GMT 51.136749 -1.177444 7,000 37 230 0
2019-06-18 14:44:26 GMT 51.134262 -1.180362 7,000 34 202 768
2019-06-18 14:44:23 GMT 51.130836 -1.184464 7,000 36 225 64
2019-06-18 14:44:19 GMT 51.126137 -1.189957 6,500 34 196 1408
2019-06-18 14:44:16 GMT 51.123760 -1.192703 6,900 35 214 192
2019-06-18 14:44:10 GMT 51.120735 -1.196136 6,900 35 210 320
2019-06-18 14:44:06 GMT 51.117756 -1.199570 6,900 35 204 704
2019-06-18 14:44:03 GMT 51.115402 -1.202186 6,800 35 203 704
2019-06-18 14:44:00 GMT 51.113159 -1.204710 6,800 34 199 1088
2019-06-18 14:43:57 GMT 51.110367 -1.207754 6,700 34 198 1216
2019-06-18 14:43:54 GMT 51.108582 -1.209758 6,700 34 196 1344
2019-06-18 14:43:50 GMT 51.105652 -1.212921 6,500 34 195 1728
2019-06-18 14:43:47 GMT 51.103500 -1.215325 6,400 34 194 1536
2019-06-18 14:43:43 GMT 51.100391 -1.218719 6,400 35 187 1856
2019-06-18 14:43:39 GMT 51.097000 -1.222377 6,300 34 192 1344
2019-06-18 14:43:36 GMT 51.095398 -1.224159 6,200 34 190 1472
2019-06-18 14:43:33 GMT 51.093410 -1.226425 6,100 35 188 1600
2019-06-18 14:43:30 GMT 51.088940 -1.231384 6,000 35 187 1728
2019-06-18 14:43:24 GMT 51.084915 -1.235962 5,800 36 186 1664
2019-06-18 14:43:21 GMT 51.083122 -1.238098 5,800 36 186 1664
2019-06-18 14:43:14 GMT 51.079445 -1.242371 5,600 39 181 1408
2019-06-18 14:43:11 GMT 51.075626 -1.247025 5,400 37 185 1728
2019-06-18 14:43:07 GMT 51.075626 -1.247025 5,400 38 184 1728
2019-06-18 14:43:03 GMT 51.072414 -1.251068 5,300 38 184 1792
2019-06-18 14:43:00 GMT 51.070320 -1.253738 5,200 38 184 1728
2019-06-18 14:42:57 GMT 51.068527 -1.256005 5,100 39 182 1536
2019-06-18 14:42:53 GMT 51.065781 -1.259568 5,000 39 181 1408
2019-06-18 14:42:50 GMT 51.064407 -1.261368 4,900 40 179 1472
2019-06-18 14:42:47 GMT 51.062073 -1.264467 4,900 40 178 1408
2019-06-18 14:42:44 GMT 51.060543 -1.266556 4,800 40 175 1472
2019-06-18 14:42:41 GMT 51.058136 -1.269886 4,700 41 174 1664
2019-06-18 14:42:38 GMT 51.056076 -1.272707 4,600 41 172 1664
2019-06-18 14:42:34 GMT 51.054153 -1.275528 4,600 41 172 1664
2019-06-18 14:42:31 GMT 51.051838 -1.278763 4,400 41 170 1792
2019-06-18 14:42:28 GMT 51.050674 -1.280427 4,400 41 169 1792
2019-06-18 14:42:24 GMT 51.048161 -1.283951 4,200 42 168 1920
2019-06-18 14:42:21 GMT 51.046249 -1.286697 4,200 42 168 1984
2019-06-18 14:42:18 GMT 51.044632 -1.289038 4,000 42 168 2240
2019-06-18 14:42:15 GMT 51.043259 -1.291042 3,900 42 168 2368
2019-06-18 14:42:12 GMT 51.040943 -1.294327 3,800 41 169 2432
2019-06-18 14:42:09 GMT 51.039593 -1.296234 3,500 41 170 2176
2019-06-18 14:42:06 GMT 51.037766 -1.298836 3,500 41 169 2112
2019-06-18 14:42:00 GMT 51.033783 -1.304478 3,300 41 170 1984
2019-06-18 14:41:57 GMT 51.032639 -1.306037 3,200 40 170 1792
2019-06-18 14:41:54 GMT 51.031219 -1.307967 3,100 40 170 1664
2019-06-18 14:41:51 GMT 51.029305 -1.310654 3,100 40 170 1728
2019-06-18 14:41:48 GMT 51.026688 -1.314202 3,000 39 169 1856
2019-06-18 14:41:45 GMT 51.025490 -1.315765 2,900 39 169 1792
2019-06-18 14:41:42 GMT 51.023022 -1.318893 2,800 38 169 1536
2019-06-18 14:41:38 GMT 51.020882 -1.321640 2,700 37 168 1664
2019-06-18 14:41:34 GMT 51.018906 -1.324001 2,600 36 168 1664
2019-06-18 14:41:31 GMT 51.016708 -1.326376 2,500 33 167 1664
2019-06-18 14:41:27 GMT 51.014175 -1.328888 2,500 31 167 1664
2019-06-18 14:41:24 GMT 51.012455 -1.330338 2,400 24 166 1728
2019-06-18 14:41:21 GMT 51.009846 -1.332092 2,300 17 166 1472
2019-06-18 14:41:18 GMT 51.007919 -1.332983 2,100 15 165 1344
2019-06-18 14:41:14 GMT 51.004822 -1.334305 2,100 14 164 1408
2019-06-18 14:41:11 GMT 51.000164 -1.336212 2,000 14 162 1472
2019-06-18 14:41:08 GMT 51.000164 -1.336212 1,900 13 160 1600
2019-06-18 14:41:05 GMT 50.998394 -1.336823 1,900 13 160 1600
2019-06-18 14:41:01 GMT 50.995090 -1.338043 1,800 12 158 1728
2019-06-18 14:40:58 GMT 50.993603 -1.338577 1,700 11 158 1920
2019-06-18 14:40:55 GMT 50.989365 -1.339951 1,500 10 158 2048
2019-06-18 14:40:48 GMT 50.985779 -1.340942 1,400 10 158 2112
2019-06-18 14:40:44 GMT 50.983315 -1.341629 1,000 10 160 2240
2019-06-18 14:40:39 GMT 50.979309 -1.342782 1,000 11 161 2176
2019-06-18 14:40:35 GMT 50.976330 -1.343765 800 12 162 1984
2019-06-18 14:40:32 GMT 50.973675 -1.344757 700 14 160 1664
2019-06-18 14:40:27 GMT 50.970749 -1.345974 600 15 158 1600
2019-06-18 14:40:23 GMT 50.968185 -1.347236 600 17 156 1408
2019-06-18 14:40:17 GMT 50.960037 -1.351547 400 18 145 1152
2019-06-18 14:40:11 GMT 50.960037 -1.351547 300 19 141 896
2019-06-18 14:40:08 GMT 50.958546 -1.352386 300 18 132 832
2019-06-18 14:39:58 GMT 50.952942 -1.355327 100 18 120 1152
2019-06-18 14:39:47 GMT 50.947842 -1.358147 0 19 92
2019-06-18 14:39:36 GMT 50.944473 -1.360041 0 19 38
2019-06-18 14:39:25 GMT 50.943768 -1.360416 0 16 3
2019-06-18 14:39:10 GMT 50.943569 -1.360531 0 30 10
2019-06-18 14:39:04 GMT 50.943348 -1.360779 0 25 9
2019-06-18 14:38:54 GMT 50.943054 -1.360616 0 270 8
2019-06-18 14:38:44 GMT 50.943336 -1.360378 0 160 10
2019-06-18 14:38:33 GMT 50.943878 -1.360319 0 199 14
2019-06-18 14:38:23 GMT 50.944534 -1.359978 0 199 15
2019-06-18 14:38:12 GMT 50.945148 -1.359577 0 199 13
2019-06-18 14:38:02 GMT 50.945606 -1.359711 0 120 10
2019-06-18 14:37:51 GMT 50.945789 -1.360455 0 109 11
2019-06-18 14:37:41 GMT 50.946014 -1.361122 0 146 11
2019-06-18 14:37:29 GMT 50.946606 -1.361370 0 194 11
2019-06-18 14:37:20 GMT 50.947025 -1.361160 0 199 12
2019-06-18 14:37:09 GMT 50.947605 -1.360836 0 199 14
2019-06-18 14:36:59 GMT 50.948200 -1.360512 0 199 15
2019-06-18 14:36:44 GMT 50.949097 -1.359997 0 202 14
2019-06-18 14:36:37 GMT 50.949532 -1.359744 0 199 14
2019-06-18 14:36:27 GMT 50.950138 -1.359428 0 196 13
2019-06-18 14:36:16 GMT 50.950714 -1.359100 0 199 12
2019-06-18 14:36:05 GMT 50.951237 -1.358797 0 196 12
2019-06-18 14:35:55 GMT 50.951786 -1.358482 0 199 13
2019-06-18 14:35:44 GMT 50.952320 -1.358185 0 196 11
2019-06-18 14:35:33 GMT 50.952770 -1.357944 0 199 9
2019-06-18 14:35:23 GMT 50.953079 -1.357888 0 146 5
2019-06-18 14:35:11 GMT 50.953194 -1.358259 0 106 5
2019-06-18 14:35:02 GMT 50.953251 -1.358482 0 132 3
2019-06-18 14:34:51 GMT 50.953388 -1.358519 0 270 0
2019-06-18 14:34:41 GMT 50.953400 -1.358519 0 270 0
2019-06-18 14:34:31 GMT 50.953403 -1.358528 0 270 0
2019-06-18 14:34:16 GMT 50.953411 -1.358556 0 270 0
2019-06-18 14:33:56 GMT 50.953423 -1.358537 0 270 0
2019-06-18 14:31:10 GMT 50.953426 -1.358528 0 270 0
2019-06-18 14:31:00 GMT 50.953434 -1.358519 0 270 0
2019-06-18 14:30:40 GMT 50.953438 -1.358528 0 270 0
2019-06-18 14:30:30 GMT 50.953434 -1.358519 0 270 0
2019-06-18 14:30:16 GMT 50.953434 -1.358537 0 270 0
2019-06-18 14:29:56 GMT 50.953434 -1.358519 0 270 0
2019-06-18 14:29:46 GMT 50.953438 -1.358509 0 270 0
2019-06-18 14:29:36 GMT 50.953434 -1.358519 0 270 0
2019-06-18 14:29:26 GMT 50.953438 -1.358509 0 270 0
2019-06-18 14:29:16 GMT 50.953434 -1.358519 0 270 0
2019-06-18 14:29:06 GMT 50.953426 -1.358528 0 270 0
2019-06-18 14:28:56 GMT 50.953434 -1.358519 0 270 0
2019-06-18 14:28:15 GMT 50.953434 -1.358537 0 270 0
2019-06-18 14:27:50 GMT 50.953438 -1.358528 0 270 0
2019-06-18 14:27:40 GMT 50.953426 -1.358528 0 270 0
2019-06-18 14:27:30 GMT 50.953400 -1.358537 0 270 0
2019-06-18 14:27:20 GMT 50.953400 -1.358556 0 270 0
2019-06-18 14:27:10 GMT 50.953392 -1.358547 0 270 0
2019-06-18 14:27:00 GMT 50.953377 -1.358556 0 270 0
2019-06-18 14:26:40 GMT 50.953369 -1.358566 0 270 0
We lost coverage of the aircraft here for a total of 117 minutes
2019-06-18 12:29:24 GMT 50.953426 -1.358528 0 199 0 0
2019-06-18 12:29:16 GMT 50.953423 -1.358537 0 199 0 0
2019-06-18 12:29:04 GMT 50.953426 -1.358528 0 199 0 0
2019-06-18 12:28:54 GMT 50.953495 -1.358490 0 199 3 0
2019-06-18 12:28:43 GMT 50.953568 -1.358452 0 208 2 0
2019-06-18 12:28:33 GMT 50.953636 -1.358299 0 239 4 0
2019-06-18 12:28:21 GMT 50.953693 -1.357880 0 292 8 0
2019-06-18 12:28:08 GMT 50.953239 -1.357721 0 19 11 0
2019-06-18 12:28:01 GMT 50.952961 -1.357861 0 19 9 0
2019-06-18 12:27:51 GMT 50.952553 -1.358089 0 19 8 0
2019-06-18 12:27:35 GMT 50.951962 -1.358433 0 19 10 0
2019-06-18 12:27:30 GMT 50.951763 -1.358528 0 19 10 0
2019-06-18 12:27:18 GMT 50.951260 -1.358814 0 19 11 0
2019-06-18 12:27:07 GMT 50.950748 -1.359043 0 357 10 0
2019-06-18 12:26:58 GMT 50.950493 -1.358575 0 289 12 0
2019-06-18 12:26:48 GMT 50.950321 -1.357814 0 289 11 0
2019-06-18 12:26:38 GMT 50.950127 -1.357108 0 323 11 0
2019-06-18 12:26:27 GMT 50.949486 -1.357201 0 19 16 0
2019-06-18 12:26:17 GMT 50.948887 -1.357574 0 19 15 0
2019-06-18 12:26:05 GMT 50.948189 -1.358032 0 30 11 0
2019-06-18 12:25:56 GMT 50.947910 -1.358299 0 2 5 0
2019-06-18 12:25:46 GMT 50.947815 -1.358051 0 227 7 0
2019-06-18 12:25:35 GMT 50.948318 -1.357880 0 196 18 0
2019-06-18 12:25:24 GMT 50.949455 -1.357250 0 199 32 0
2019-06-18 12:25:14 GMT 50.951340 -1.356218 0 199 60 0
2019-06-18 12:25:04 GMT 50.954956 -1.354213 0 200 97 -128
2019-06-18 12:24:53 GMT 50.959854 -1.351467 200 200 118 -640
2019-06-18 12:24:43 GMT 50.965393 -1.348423 300 201 126 -640
2019-06-18 12:24:33 GMT 50.971024 -1.345215 400 199 129 -576
2019-06-18 12:24:22 GMT 50.977261 -1.341705 600 201 133 -704
2019-06-18 12:24:19 GMT 50.979076 -1.340637 600 201 134 -832
2019-06-18 12:24:14 GMT 50.982010 -1.339070 700 199 139 -768
2019-06-18 12:24:11 GMT 50.983841 -1.338031 700 199 137 -768
2019-06-18 12:24:01 GMT 50.990021 -1.334690 800 200 141 -1152
2019-06-18 12:23:58 GMT 50.992252 -1.333389 900 201 143 -576
2019-06-18 12:23:53 GMT 50.994762 -1.331863 900 201 152 -384
2019-06-18 12:23:50 GMT 50.997044 -1.330566 900 201 152 -384
2019-06-18 12:23:47 GMT 50.999130 -1.329346 1,000 201 158 -768
2019-06-18 12:23:43 GMT 51.003708 -1.326673 1,000 201 160 -832
2019-06-18 12:23:36 GMT 51.006496 -1.325073 1,100 201 165 -1024
2019-06-18 12:23:32 GMT 51.009109 -1.323556 1,200 201 166 -1088
2019-06-18 12:23:29 GMT 51.011307 -1.322294 1,200 201 166 -1152
2019-06-18 12:23:25 GMT 51.014511 -1.320438 1,400 201 169 -1152
2019-06-18 12:23:21 GMT 51.017529 -1.318665 1,500 200 173 -960
2019-06-18 12:23:18 GMT 51.019409 -1.317617 1,500 200 175 -768
2019-06-18 12:23:15 GMT 51.021835 -1.316281 1,500 200 178 -640
2019-06-18 12:23:12 GMT 51.027817 -1.312943 1,700 199 185 -832
2019-06-18 12:23:08 GMT 51.027817 -1.312943 2,500 203 202 -128
2019-06-18 12:23:05 GMT 51.030304 -1.311604 1,700 199 185 -896
2019-06-18 12:23:01 GMT 51.033096 -1.310120 1,700 199 185 -1024
2019-06-18 12:22:58 GMT 51.035915 -1.308594 1,800 199 187 -960
2019-06-18 12:22:55 GMT 51.038757 -1.307068 1,800 199 188 -960
2019-06-18 12:22:51 GMT 51.041225 -1.305771 1,900 200 189 -1280
2019-06-18 12:22:47 GMT 51.044632 -1.304033 2,100 199 190 -1216
2019-06-18 12:22:44 GMT 51.047276 -1.302567 2,000 199 189 -1280
2019-06-18 12:22:41 GMT 51.050022 -1.301117 2,100 199 190 -1216
2019-06-18 12:22:37 GMT 51.052597 -1.299727 2,200 200 189 -1280
2019-06-18 12:22:34 GMT 51.055515 -1.298141 2,200 200 189 -1280
2019-06-18 12:22:31 GMT 51.058228 -1.296609 2,300 200 189 -1280
2019-06-18 12:22:27 GMT 51.061615 -1.294679 2,400 201 189 -1152
2019-06-18 12:22:24 GMT 51.066547 -1.291733 2,400 201 191 -832
2019-06-18 12:22:21 GMT 51.066547 -1.291733 2,400 201 192 -512
2019-06-18 12:22:15 GMT 51.075439 -1.286143 2,400 202 197 -128
2019-06-18 12:22:11 GMT 51.075439 -1.286143 2,400 202 200 -64
2019-06-18 12:22:04 GMT 51.081165 -1.282501 2,500 203 203 -192
2019-06-18 12:22:00 GMT 51.084190 -1.280518 2,500 203 203 -320
2019-06-18 12:21:54 GMT 51.089592 -1.276550 2,500 211 206 -384
2019-06-18 12:21:51 GMT 51.092060 -1.274185 2,500 216 207 -768
2019-06-18 12:21:43 GMT 51.098019 -1.265717 2,600 235 210 -960
2019-06-18 12:21:40 GMT 51.099747 -1.261423 2,700 246 210 -1152
2019-06-18 12:21:37 GMT 51.100754 -1.258083 2,800 249 211 -1088
2019-06-18 12:21:33 GMT 51.101898 -1.252293 2,800 256 211 -832
2019-06-18 12:21:28 GMT 51.102539 -1.244127 2,900 270 212 -896
2019-06-18 12:21:24 GMT 51.102299 -1.238022 3,000 313 228 -384
2019-06-18 12:21:20 GMT 51.101440 -1.232028 3,000 295 218 -704
2019-06-18 12:21:17 GMT 51.100113 -1.226683 3,000 295 218 -704
2019-06-18 12:21:12 GMT 51.097961 -1.221264 3,000 305 219 -576
2019-06-18 12:21:09 GMT 51.095673 -1.216884 3,000 312 223 -128
2019-06-18 12:21:06 GMT 51.090958 -1.208496 3,100 312 226 -256
2019-06-18 12:21:02 GMT 51.090958 -1.208496 3,100 313 227 -256
2019-06-18 12:20:59 GMT 51.088383 -1.203995 3,100 314 229 -576
2019-06-18 12:20:55 GMT 51.085541 -1.199417 3,100 316 231 -704
2019-06-18 12:20:52 GMT 51.083405 -1.196099 3,200 331 233 -1152
2019-06-18 12:20:49 GMT 51.081490 -1.193314 3,200 322 234 -1024
2019-06-18 12:20:46 GMT 51.078598 -1.189493 3,300 325 233 -1280
2019-06-18 12:20:42 GMT 51.072182 -1.183472 3,400 341 234 -64
2019-06-18 12:20:39 GMT 51.072182 -1.183472 3,400 353 238 -64
2019-06-18 12:20:36 GMT 51.068596 -1.181488 3,400 23 241 -768
2019-06-18 12:20:33 GMT 51.065140 -1.180659 3,400 5 239 -896
2019-06-18 12:20:30 GMT 51.063244 -1.180649 3,400 14 240 -768
2019-06-18 12:20:27 GMT 51.059189 -1.181476 3,400 14 240 -768
2019-06-18 12:20:23 GMT 51.055298 -1.183331 3,500 22 240 -640
2019-06-18 12:20:20 GMT 51.052505 -1.185113 3,500 23 240 -640
2019-06-18 12:20:17 GMT 51.045135 -1.190235 3,600 23 241 -960
2019-06-18 12:20:13 GMT 51.045135 -1.190235 3,600 23 241 -832
2019-06-18 12:20:10 GMT 51.041519 -1.192685 3,700 23 241 -1088
2019-06-18 12:20:07 GMT 51.038361 -1.194837 3,700 23 241 -1088
2019-06-18 12:20:02 GMT 51.034241 -1.197584 3,800 22 239 -1152
2019-06-18 12:19:59 GMT 51.030167 -1.200331 3,900 22 239 -1088
2019-06-18 12:19:53 GMT 51.024139 -1.204224 4,000 22 236 -1280
2019-06-18 12:19:47 GMT 51.017578 -1.208867 4,100 28 237 -320
2019-06-18 12:19:42 GMT 51.013367 -1.213024 4,100 36 238 -320
2019-06-18 12:19:38 GMT 51.009293 -1.218443 4,100 46 240 -256
2019-06-18 12:19:32 GMT 51.005768 -1.224827 4,100 52 243 192
2019-06-18 12:19:29 GMT 51.003796 -1.229401 4,200 61 245 -896
2019-06-18 12:19:26 GMT 51.001747 -1.236038 4,200 68 244 -1216
2019-06-18 12:19:22 GMT 50.999863 -1.248136 4,300 80 243 -768
2019-06-18 12:19:18 GMT 50.999863 -1.248136 4,300 83 243 -832
2019-06-18 12:19:15 GMT 50.999653 -1.253128 4,400 89 244 -448
2019-06-18 12:19:11 GMT 50.999863 -1.259939 4,400 97 243 -832
2019-06-18 12:19:07 GMT 51.000778 -1.267807 4,500 105 241 -1216
2019-06-18 12:19:04 GMT 51.002911 -1.277847 4,600 109 240 -1152
2019-06-18 12:18:58 GMT 51.003937 -1.282501 4,700 108 240 -1152
2019-06-18 12:18:55 GMT 51.005264 -1.288667 4,800 108 239 -1088
2019-06-18 12:18:51 GMT 51.006454 -1.294308 4,800 108 239 -1088
2019-06-18 12:18:48 GMT 51.007736 -1.300321 4,900 107 239 -1088
2019-06-18 12:18:44 GMT 51.008778 -1.305542 4,900 151 233 -1024
2019-06-18 12:18:40 GMT 51.010162 -1.312792 4,900 106 240 -768
2019-06-18 12:18:37 GMT 51.011059 -1.316986 5,000 113 240 -640
2019-06-18 12:18:33 GMT 51.012909 -1.323704 5,000 116 240 -768
2019-06-18 12:18:30 GMT 51.016434 -1.332612 5,800 142 235 -1088
2019-06-18 12:18:23 GMT 51.019485 -1.338120 5,200 197 220 -1216
2019-06-18 12:18:19 GMT 51.025543 -1.345751 5,300 146 234 -896
2019-06-18 12:18:16 GMT 51.029259 -1.348953 5,400 152 233 -1024
2019-06-18 12:18:12 GMT 51.029259 -1.348953 5,600 174 225 -1024
2019-06-18 12:18:08 GMT 51.033005 -1.351393 5,400 161 229 -1408
2019-06-18 12:18:05 GMT 51.037582 -1.353323 5,500 168 226 -1088
2019-06-18 12:18:02 GMT 51.039360 -1.353760 5,700 174 225 -1024
2019-06-18 12:17:59 GMT 51.042984 -1.354288 5,600 178 225 -1152
2019-06-18 12:17:55 GMT 51.046719 -1.354218 5,700 183 223 -1216
2019-06-18 12:17:52 GMT 51.049942 -1.353620 5,800 189 222 -1152
2019-06-18 12:17:49 GMT 51.052551 -1.352803 5,800 197 213 -1088
2019-06-18 12:17:46 GMT 51.054909 -1.351776 5,800 196 221 -832
2019-06-18 12:17:43 GMT 51.058456 -1.350131 5,900 197 221 -1024
2019-06-18 12:17:37 GMT 51.064362 -1.347458 6,100 196 221 -960
2019-06-18 12:17:34 GMT 51.068130 -1.345749 6,100 197 220 -1088
2019-06-18 12:17:31 GMT 51.069672 -1.345083 6,600 197 213 -1088
2019-06-18 12:17:28 GMT 51.073997 -1.343002 6,200 197 220 -1216
2019-06-18 12:17:25 GMT 51.077023 -1.341553 6,200 197 220 -1216
2019-06-18 12:17:21 GMT 51.080429 -1.339887 6,300 197 219 -1088
2019-06-18 12:17:17 GMT 51.083908 -1.338254 6,300 197 218 -1024
2019-06-18 12:17:13 GMT 51.087963 -1.336365 6,400 197 218 -896
2019-06-18 12:17:09 GMT 51.094433 -1.333237 6,700 198 218 -960
2019-06-18 12:17:02 GMT 51.098740 -1.331127 6,600 197 216 -1216
2019-06-18 12:16:59 GMT 51.101135 -1.330032 6,600 197 214 -1152
2019-06-18 12:16:56 GMT 51.104462 -1.328455 6,800 197 212 -1024
2019-06-18 12:16:53 GMT 51.107162 -1.327119 6,800 197 206 -704
2019-06-18 12:16:50 GMT 51.110538 -1.325531 6,800 197 210 -768
2019-06-18 12:16:47 GMT 51.112774 -1.324463 6,900 197 208 -768
2019-06-18 12:16:43 GMT 51.115997 -1.322888 6,900 197 206 -704
2019-06-18 12:16:40 GMT 51.121399 -1.320364 7,000 197 205 -704
2019-06-18 12:16:37 GMT 51.121399 -1.320364 7,000 197 204 -768
2019-06-18 12:16:34 GMT 51.124512 -1.318879 7,000 197 203 -576
2019-06-18 12:16:30 GMT 51.128277 -1.317062 7,000 197 203 0
2019-06-18 12:16:27 GMT 51.131058 -1.315761 7,000 197 203 64
2019-06-18 12:16:24 GMT 51.136562 -1.313095 7,000 197 203 64
2019-06-18 12:16:20 GMT 51.136562 -1.313095 7,000 197 203 0
2019-06-18 12:16:17 GMT 51.140007 -1.311493 7,000 197 203 0
2019-06-18 12:16:14 GMT 51.147125 -1.308115 7,000 197 203 0
2019-06-18 12:16:09 GMT 51.149364 -1.307068 7,000 197 204 0
2019-06-18 12:16:03 GMT 51.153076 -1.305295 7,000 197 204 0
2019-06-18 12:16:00 GMT 51.155090 -1.304330 7,000 197 204 0
2019-06-18 12:15:56 GMT 51.162872 -1.300692 7,000 197 204 64
2019-06-18 12:15:52 GMT 51.162872 -1.300692 7,000 197 204 64
2019-06-18 12:15:49 GMT 51.164612 -1.299876 7,000 197 204 0
2019-06-18 12:15:46 GMT 51.171337 -1.296692 7,000 197 205 0
2019-06-18 12:15:43 GMT 51.174503 -1.295166 7,000 197 205 0
2019-06-18 12:15:39 GMT 51.174503 -1.295166 7,000 197 206 -64
2019-06-18 12:15:36 GMT 51.177155 -1.293937 7,000 197 206 -64
2019-06-18 12:15:33 GMT 51.179436 -1.292877 7,000 196 214 -128
2019-06-18 12:15:30 GMT 51.182465 -1.291428 7,000 197 206 128
2019-06-18 12:15:27 GMT 51.185211 -1.290151 7,000 197 207 64
2019-06-18 12:15:24 GMT 51.188782 -1.288518 7,000 197 207 64
2019-06-18 12:15:21 GMT 51.191895 -1.287033 7,000 197 207 64
2019-06-18 12:15:18 GMT 51.193405 -1.286365 7,000 197 213 -64
2019-06-18 12:15:14 GMT 51.197266 -1.284561 7,000 197 209 64
2019-06-18 12:15:11 GMT 51.199780 -1.283417 7,000 197 209 64
2019-06-18 12:15:08 GMT 51.203018 -1.281911 7,000 197 210 64
2019-06-18 12:15:04 GMT 51.209370 -1.278992 7,000 197 211 0
2019-06-18 12:15:01 GMT 51.209370 -1.278992 7,000 196 214 -128
2019-06-18 12:14:57 GMT 51.212860 -1.277390 7,000 197 212 0
2019-06-18 12:14:54 GMT 51.216156 -1.275899 7,000 197 213 -192
2019-06-18 12:14:51 GMT 51.219589 -1.274340 7,000 196 214 -128
2019-06-18 12:14:47 GMT 51.222427 -1.273004 7,000 196 214 -128
2019-06-18 12:14:43 GMT 51.229248 -1.269913 7,800 194 219 -1024
2019-06-18 12:14:40 GMT 51.229248 -1.269913 7,000 197 217 -192
2019-06-18 12:14:37 GMT 51.232452 -1.268401 7,000 196 218 -192
2019-06-18 12:14:34 GMT 51.234463 -1.267471 7,100 196 219 -448
2019-06-18 12:14:31 GMT 51.239162 -1.265411 7,100 195 220 -768
2019-06-18 12:14:28 GMT 51.241119 -1.264496 7,100 196 220 -640
2019-06-18 12:14:25 GMT 51.244766 -1.262982 7,200 192 220 -960
2019-06-18 12:14:22 GMT 51.250988 -1.260529 7,200 194 220 -1024
2019-06-18 12:14:18 GMT 51.250988 -1.260529 7,300 192 220 -1024
2019-06-18 12:14:15 GMT 51.254665 -1.259384 7,400 177 221 -960
2019-06-18 12:14:12 GMT 51.256992 -1.258850 7,500 172 218 -896
2019-06-18 12:14:09 GMT 51.260559 -1.258454 7,400 178 221 -960
2019-06-18 12:14:06 GMT 51.263092 -1.258621 7,400 175 221 -896
2019-06-18 12:14:02 GMT 51.267288 -1.259345 7,500 172 222 -896
2019-06-18 12:13:59 GMT 51.272644 -1.260533 7,600 172 221 -896
2019-06-18 12:13:56 GMT 51.272644 -1.260533 7,600 172 221 -896
2019-06-18 12:13:53 GMT 51.276215 -1.261275 7,800 172 217 -640
2019-06-18 12:13:50 GMT 51.279526 -1.261978 7,700 172 218 -896
2019-06-18 12:13:47 GMT 51.282455 -1.262665 7,800 172 218 -896
2019-06-18 12:13:44 GMT 51.285530 -1.263351 8,000 172 217 -640
2019-06-18 12:13:41 GMT 51.291641 -1.264615 7,800 172 217 -640
2019-06-18 12:13:38 GMT 51.291641 -1.264615 7,900 172 216 -640
2019-06-18 12:13:35 GMT 51.297306 -1.265869 7,900 172 216 -640
2019-06-18 12:13:32 GMT 51.297306 -1.265869 7,900 172 215 -576
2019-06-18 12:13:29 GMT 51.300751 -1.266620 7,900 172 214 -640
2019-06-18 12:13:25 GMT 51.303497 -1.267214 8,000 172 214 -576
2019-06-18 12:13:22 GMT 51.307503 -1.268082 8,000 172 211 0
2019-06-18 12:13:19 GMT 51.310730 -1.268772 8,000 172 211 -64
2019-06-18 12:13:13 GMT 51.315765 -1.269886 8,000 172 211 0
2019-06-18 12:13:09 GMT 51.319748 -1.270777 8,000 172 211 0
2019-06-18 12:13:05 GMT 51.323364 -1.271593 8,000 172 212 0
2019-06-18 12:13:02 GMT 51.326355 -1.272278 8,000 172 212 64
2019-06-18 12:12:59 GMT 51.330185 -1.273078 8,000 172 212 0
2019-06-18 12:12:55 GMT 51.333481 -1.273820 8,000 172 213 -64
2019-06-18 12:12:52 GMT 51.336456 -1.274488 8,000 172 213 -64
2019-06-18 12:12:49 GMT 51.343094 -1.275973 8,000 171 217 0
2019-06-18 12:12:46 GMT 51.343094 -1.275973 8,000 171 215 64
2019-06-18 12:12:43 GMT 51.345581 -1.276474 8,000 171 215 0
2019-06-18 12:12:39 GMT 51.348724 -1.277235 8,000 171 215 0
2019-06-18 12:12:36 GMT 51.351746 -1.277903 8,000 172 216 0
2019-06-18 12:12:33 GMT 51.357174 -1.279068 8,000 172 216 64
2019-06-18 12:12:27 GMT 51.360855 -1.279907 8,000 171 217 0
2019-06-18 12:12:24 GMT 51.364204 -1.280670 8,000 172 217 64
2019-06-18 12:12:20 GMT 51.368958 -1.281763 8,000 172 217 0
2019-06-18 12:12:16 GMT 51.372444 -1.282501 8,000 172 217 0
2019-06-18 12:12:13 GMT 51.375916 -1.283322 8,000 172 217 64
2019-06-18 12:12:10 GMT 51.377422 -1.283646 8,000 172 217 0
2019-06-18 12:12:07 GMT 51.380497 -1.284332 8,000 172 224 -960
2019-06-18 12:12:04 GMT 51.383698 -1.285029 8,000 172 217 0
2019-06-18 12:12:01 GMT 51.386490 -1.285623 8,000 172 217 0
2019-06-18 12:11:57 GMT 51.394821 -1.287553 8,000 172 217 0
2019-06-18 12:11:54 GMT 51.394821 -1.287553 8,000 171 217 0
2019-06-18 12:11:51 GMT 51.396790 -1.287999 8,000 171 218 64
2019-06-18 12:11:48 GMT 51.399395 -1.288605 8,000 171 217 0
2019-06-18 12:11:45 GMT 51.405670 -1.290003 8,000 171 218 0
2019-06-18 12:11:42 GMT 51.405670 -1.290003 8,000 171 218 0
2019-06-18 12:11:39 GMT 51.408661 -1.290741 8,000 171 218 0
2019-06-18 12:11:36 GMT 51.412033 -1.291487 8,000 171 218 0
2019-06-18 12:11:33 GMT 51.414734 -1.292155 8,000 171 219 64
2019-06-18 12:11:30 GMT 51.417938 -1.292898 8,000 171 219 64
2019-06-18 12:11:27 GMT 51.420437 -1.293488 8,000 171 221 -256
2019-06-18 12:11:24 GMT 51.424576 -1.294457 8,000 171 220 0
2019-06-18 12:11:21 GMT 51.426682 -1.294976 8,000 171 220 0
2019-06-18 12:11:18 GMT 51.430305 -1.295853 8,000 171 221 -64
2019-06-18 12:11:15 GMT 51.433056 -1.296539 8,000 171 221 -192
2019-06-18 12:11:12 GMT 51.435848 -1.297226 8,000 171 221 -192
2019-06-18 12:11:09 GMT 51.438492 -1.297871 8,000 171 221 -128
2019-06-18 12:11:06 GMT 51.441833 -1.298614 8,000 171 221 -192
2019-06-18 12:11:03 GMT 51.444458 -1.299286 8,000 171 221 -320
2019-06-18 12:10:59 GMT 51.449116 -1.300354 8,100 171 220 -384
2019-06-18 12:10:56 GMT 51.452328 -1.301041 8,100 172 224 -960
2019-06-18 12:10:52 GMT 51.455307 -1.301727 8,100 172 222 -704
2019-06-18 12:10:49 GMT 51.461918 -1.303177 8,200 172 223 -960
2019-06-18 12:10:46 GMT 51.461918 -1.303177 8,200 172 222 -1024
2019-06-18 12:10:43 GMT 51.465042 -1.303810 8,200 172 223 -960
2019-06-18 12:10:40 GMT 51.468338 -1.304552 9,000 172 223 -960
2019-06-18 12:10:37 GMT 51.471970 -1.305313 8,400 172 222 -960
2019-06-18 12:10:34 GMT 51.477512 -1.306458 8,400 172 222 -960
2019-06-18 12:10:31 GMT 51.477512 -1.306458 8,400 172 222 -896
2019-06-18 12:10:28 GMT 51.480583 -1.307144 8,500 172 222 -896
2019-06-18 12:10:25 GMT 51.484268 -1.307893 8,500 172 223 -960
2019-06-18 12:10:22 GMT 51.486404 -1.308365 8,600 172 223 -960
2019-06-18 12:10:19 GMT 51.490593 -1.309204 8,700 172 223 -960
2019-06-18 12:10:13 GMT 51.495529 -1.310268 8,700 172 223 -960
2019-06-18 12:10:10 GMT 51.498413 -1.310862 8,800 172 224 -960
2019-06-18 12:10:07 GMT 51.501999 -1.311646 8,900 172 224 -960
2019-06-18 12:10:04 GMT 51.506096 -1.312485 9,000 171 221 0
2019-06-18 12:10:00 GMT 51.509075 -1.313171 9,000 172 222 -960
2019-06-18 12:09:56 GMT 51.514389 -1.314351 9,000 172 221 -832
2019-06-18 12:09:53 GMT 51.517319 -1.315019 9,000 172 220 0
2019-06-18 12:09:50 GMT 51.518894 -1.315384 9,000 171 221 0
2019-06-18 12:09:47 GMT 51.522343 -1.316147 9,000 171 220 0
2019-06-18 12:09:44 GMT 51.525970 -1.316949 9,000 171 221 0
2019-06-18 12:09:40 GMT 51.532162 -1.318359 9,000 171 221 64
2019-06-18 12:09:37 GMT 51.535675 -1.319102 9,000 171 221 0
2019-06-18 12:09:31 GMT 51.541985 -1.320572 9,000 171 221 0
2019-06-18 12:09:28 GMT 51.541985 -1.320572 9,000 171 222 0
2019-06-18 12:09:25 GMT 51.547760 -1.321923 9,000 171 222 0
2019-06-18 12:09:19 GMT 51.551342 -1.322708 9,000 171 222 0
2019-06-18 12:09:16 GMT 51.553764 -1.323242 9,000 171 223 0
2019-06-18 12:09:13 GMT 51.556232 -1.323853 9,000 171 223 0
2019-06-18 12:09:07 GMT 51.563770 -1.325607 9,000 171 223 0
2019-06-18 12:09:03 GMT 51.566940 -1.326302 9,000 171 225 64
2019-06-18 12:09:00 GMT 51.569916 -1.327057 9,000 171 223 0
2019-06-18 12:08:57 GMT 51.575775 -1.328381 9,000 171 223 0
2019-06-18 12:08:51 GMT 51.579620 -1.329346 9,000 171 223 64
2019-06-18 12:08:47 GMT 51.584061 -1.330385 9,000 171 224 0
2019-06-18 12:08:43 GMT 51.588261 -1.331329 9,000 171 224 0
2019-06-18 12:08:40 GMT 51.593491 -1.332538 9,000 171 224 0
2019-06-18 12:08:37 GMT 51.597523 -1.333542 9,000 171 226 0
2019-06-18 12:08:30 GMT 51.600502 -1.334229 9,000 171 226 0
2019-06-18 12:08:27 GMT 51.604134 -1.335068 9,000 171 226 0
2019-06-18 12:08:23 GMT 51.608788 -1.336136 9,000 171 226 0
2019-06-18 12:08:20 GMT 51.612328 -1.336899 9,000 172 229 64
2019-06-18 12:08:17 GMT 51.614796 -1.337509 9,000 172 227 0
2019-06-18 12:08:14 GMT 51.617844 -1.338179 9,000 172 228 64
2019-06-18 12:08:11 GMT 51.619720 -1.338550 9,000 172 233 64
2019-06-18 12:08:08 GMT 51.623592 -1.339417 9,000 172 228 0
2019-06-18 12:08:05 GMT 51.627228 -1.340184 9,000 172 228 64
2019-06-18 12:08:02 GMT 51.629974 -1.340777 9,000 172 230 0
2019-06-18 12:07:58 GMT 51.634598 -1.341742 9,000 172 230 0
2019-06-18 12:07:55 GMT 51.638302 -1.342545 9,000 172 231 0
2019-06-18 12:07:52 GMT 51.640320 -1.342930 9,000 172 232 0
2019-06-18 12:07:49 GMT 51.643097 -1.343536 9,000 172 232 64
2019-06-18 12:07:46 GMT 51.647285 -1.344376 9,000 172 233 64
2019-06-18 12:07:42 GMT 51.651012 -1.345139 9,000 172 233 64
2019-06-18 12:07:39 GMT 51.654362 -1.345749 9,000 172 233 64
2019-06-18 12:07:36 GMT 51.657349 -1.346345 9,000 172 235 0
2019-06-18 12:07:33 GMT 51.660835 -1.347046 9,000 172 234 64
2019-06-18 12:07:30 GMT 51.664604 -1.347809 9,000 171 239 -128
2019-06-18 12:07:27 GMT 51.667862 -1.348495 9,000 172 236 -64
2019-06-18 12:07:24 GMT 51.671219 -1.349166 9,000 172 237 0
2019-06-18 12:07:21 GMT 51.674381 -1.349792 9,000 172 238 -128
2019-06-18 12:07:18 GMT 51.676666 -1.350279 9,000 172 238 -192
2019-06-18 12:07:15 GMT 51.681038 -1.351242 9,000 171 240 -320
2019-06-18 12:07:12 GMT 51.683121 -1.351690 9,900 167 243 -1152
2019-06-18 12:07:08 GMT 51.688705 -1.353026 9,000 171 240 -256
2019-06-18 12:07:05 GMT 51.692024 -1.353912 9,000 167 243 -1152
2019-06-18 12:07:02 GMT 51.694199 -1.354436 9,100 170 241 -512
2019-06-18 12:06:59 GMT 51.699379 -1.355896 9,200 168 243 -896
2019-06-18 12:06:54 GMT 51.704266 -1.357498 9,200 167 244 -960
2019-06-18 12:06:51 GMT 51.706604 -1.358222 9,200 167 244 -1152
2019-06-18 12:06:48 GMT 51.712784 -1.360375 9,300 167 243 -1152
2019-06-18 12:06:45 GMT 51.716400 -1.361637 9,400 167 243 -1152
2019-06-18 12:06:42 GMT 51.716400 -1.361637 9,400 167 243 -1152
2019-06-18 12:06:39 GMT 51.720154 -1.362899 9,500 167 243 -1152
2019-06-18 12:06:36 GMT 51.723679 -1.364160 9,600 167 243 -1152
2019-06-18 12:06:33 GMT 51.726288 -1.365051 9,700 167 243 -1152
2019-06-18 12:06:30 GMT 51.732788 -1.367278 9,900 167 243 -1152
2019-06-18 12:06:24 GMT 51.736759 -1.368637 9,800 167 243 -1152
2019-06-18 12:06:21 GMT 51.740719 -1.370010 9,800 167 243 -1152
2019-06-18 12:06:15 GMT 51.746304 -1.371994 9,900 167 243 -1152
2019-06-18 12:06:12 GMT 51.750072 -1.373291 10,000 167 244 -1152
2019-06-18 12:06:09 GMT 51.753250 -1.374330 10,000 167 244 -1152
2019-06-18 12:06:06 GMT 51.758789 -1.376260 10,100 167 244 -1152
2019-06-18 12:06:03 GMT 51.764179 -1.378098 10,200 167 244 -1152
2019-06-18 12:06:00 GMT 51.764179 -1.378098 10,200 167 244 -1152
2019-06-18 12:05:57 GMT 51.766415 -1.378860 10,300 168 245 -1152
2019-06-18 12:05:54 GMT 51.770603 -1.380310 10,400 168 245 -1152
2019-06-18 12:05:51 GMT 51.773911 -1.381454 10,400 168 245 -1152
2019-06-18 12:05:48 GMT 51.777237 -1.382644 10,500 168 245 -1088
2019-06-18 12:05:44 GMT 51.780148 -1.383591 10,500 167 245 -1088
2019-06-18 12:05:41 GMT 51.784698 -1.385168 10,600 167 246 -1088
2019-06-18 12:05:38 GMT 51.788342 -1.386490 10,600 167 246 -1152
2019-06-18 12:05:33 GMT 51.793926 -1.388397 10,700 167 247 -1216
2019-06-18 12:05:30 GMT 51.797279 -1.389542 10,800 167 248 -1216
2019-06-18 12:05:27 GMT 51.800770 -1.390762 10,800 167 248 -1216
2019-06-18 12:05:24 GMT 51.806168 -1.392666 11,000 167 249 -1344
2019-06-18 12:05:18 GMT 51.810654 -1.394224 11,000 167 249 -1408
2019-06-18 12:05:15 GMT 51.814594 -1.395569 11,100 167 249 -1408
2019-06-18 12:05:12 GMT 51.817528 -1.396561 11,200 167 249 -1472
2019-06-18 12:05:09 GMT 51.820229 -1.397552 11,200 167 249 -1408
2019-06-18 12:05:06 GMT 51.824745 -1.399078 11,400 167 249 -1472
2019-06-18 12:05:02 GMT 51.831306 -1.401367 11,700 167 249 -1408
2019-06-18 12:04:59 GMT 51.831306 -1.401367 11,500 167 249 -1408
2019-06-18 12:04:56 GMT 51.838898 -1.404023 11,600 167 250 -1408
2019-06-18 12:04:53 GMT 51.838898 -1.404023 11,700 167 250 -1408
2019-06-18 12:04:50 GMT 51.842514 -1.405285 11,700 167 250 -1408
2019-06-18 12:04:46 GMT 51.846668 -1.406784 11,800 167 249 -1472
2019-06-18 12:04:43 GMT 51.853931 -1.409302 11,900 167 250 -1408
2019-06-18 12:04:39 GMT 51.853931 -1.409302 11,900 167 250 -1408
2019-06-18 12:04:36 GMT 51.857895 -1.410704 12,000 167 250 -1408
2019-06-18 12:04:32 GMT 51.864670 -1.413005 12,200 168 250 -1472
2019-06-18 12:04:29 GMT 51.867947 -1.414185 12,200 167 249 -1408
2019-06-18 12:04:26 GMT 51.867947 -1.414185 12,200 167 249 -1408
2019-06-18 12:04:23 GMT 51.871296 -1.415329 12,400 167 249 -1408
2019-06-18 12:04:20 GMT 51.876389 -1.417088 12,400 167 249 -1408
2019-06-18 12:04:17 GMT 51.880001 -1.418304 12,500 167 248 -1408
2019-06-18 12:04:14 GMT 51.882702 -1.419296 12,500 167 248 -1408
2019-06-18 12:04:11 GMT 51.886055 -1.420441 12,700 167 248 -1408
2019-06-18 12:04:08 GMT 51.889080 -1.421509 12,700 167 248 -1408
2019-06-18 12:04:05 GMT 51.892338 -1.422653 12,700 167 253 -1344
2019-06-18 12:04:02 GMT 51.895935 -1.423874 12,800 167 248 -1408
2019-06-18 12:03:59 GMT 51.898808 -1.424848 12,900 167 247 -1408
2019-06-18 12:03:56 GMT 51.902435 -1.426163 12,900 167 247 -1408
2019-06-18 12:03:53 GMT 51.905090 -1.427078 13,000 167 247 -1408
2019-06-18 12:03:50 GMT 51.908676 -1.428301 13,100 167 248 -1344
2019-06-18 12:03:47 GMT 51.912277 -1.429596 13,200 167 248 -1408
2019-06-18 12:03:41 GMT 51.919235 -1.431961 13,300 167 248 -1408
2019-06-18 12:03:37 GMT 51.924591 -1.433868 13,400 167 248 -1408
2019-06-18 12:03:34 GMT 51.927624 -1.434893 13,500 167 247 -1408
2019-06-18 12:03:31 GMT 51.930862 -1.436005 13,500 167 247 -1408
2019-06-18 12:03:28 GMT 51.933350 -1.436855 13,600 167 247 -1408
2019-06-18 12:03:25 GMT 51.942719 -1.440201 13,700 167 247 -1408
2019-06-18 12:03:21 GMT 51.942719 -1.440201 13,800 167 247 -1408
2019-06-18 12:03:18 GMT 51.946198 -1.441406 13,800 167 247 -1344
2019-06-18 12:03:15 GMT 51.948853 -1.442337 13,800 167 246 -1344
2019-06-18 12:03:12 GMT 51.952332 -1.443481 13,900 167 246 -1408
2019-06-18 12:03:09 GMT 51.955463 -1.444624 14,000 167 246 -1408
2019-06-18 12:03:06 GMT 51.961807 -1.446838 14,400 167 247 -1408
2019-06-18 12:03:00 GMT 51.965927 -1.448288 14,200 167 246 -1408
2019-06-18 12:02:57 GMT 51.969383 -1.449489 14,300 167 246 -1408
2019-06-18 12:02:54 GMT 51.971149 -1.450038 14,700 167 246 -1408
2019-06-18 12:02:51 GMT 51.974594 -1.451294 14,500 167 246 -1408
2019-06-18 12:02:48 GMT 51.979626 -1.453020 15,000 167 246 -1344
2019-06-18 12:02:45 GMT 51.981857 -1.453805 14,600 167 246 -1344
2019-06-18 12:02:42 GMT 51.984745 -1.454825 14,700 167 247 -1408
2019-06-18 12:02:39 GMT 51.987534 -1.455765 14,900 167 247 -1408
2019-06-18 12:02:35 GMT 51.993263 -1.457729 14,800 167 247 -1408
2019-06-18 12:02:32 GMT 51.995499 -1.458511 15,000 167 247 -1408
2019-06-18 12:02:29 GMT 51.999619 -1.459961 15,300 167 246 -1408
2019-06-18 12:02:26 GMT 52.002388 -1.460868 15,000 167 247 -1408
2019-06-18 12:02:22 GMT 52.007309 -1.462631 15,100 167 246 -1408
2019-06-18 12:02:18 GMT 52.011887 -1.464157 15,200 167 246 -1408
2019-06-18 12:02:15 GMT 52.014771 -1.465225 15,300 167 246 -1408
2019-06-18 12:02:12 GMT 52.018448 -1.466518 15,300 167 246 -1408
2019-06-18 12:02:09 GMT 52.022598 -1.467896 15,400 167 246 -1408
2019-06-18 12:02:06 GMT 52.024246 -1.468506 15,600 167 246 -1408
2019-06-18 12:02:03 GMT 52.029373 -1.470337 15,600 167 246 -1408
2019-06-18 12:02:00 GMT 52.036930 -1.472953 15,700 167 245 -1408
2019-06-18 12:01:56 GMT 52.036930 -1.472953 15,700 167 245 -1408
2019-06-18 12:01:53 GMT 52.039673 -1.473923 15,800 167 245 -1408
2019-06-18 12:01:50 GMT 52.042557 -1.474915 15,800 167 245 -1408
2019-06-18 12:01:47 GMT 52.046986 -1.476484 15,900 167 245 -1408
2019-06-18 12:01:43 GMT 52.050896 -1.477897 16,100 167 245 -1344
2019-06-18 12:01:40 GMT 52.055317 -1.479466 16,000 167 245 -1344
2019-06-18 12:01:37 GMT 52.057739 -1.480329 16,100 167 245 -1344
2019-06-18 12:01:34 GMT 52.061417 -1.481663 16,300 168 256 -1408
2019-06-18 12:01:30 GMT 52.065765 -1.483154 16,300 167 246 -1408
2019-06-18 12:01:26 GMT 52.069981 -1.484645 16,500 167 248 -1344
2019-06-18 12:01:23 GMT 52.073101 -1.485822 16,400 167 247 -1408
2019-06-18 12:01:20 GMT 52.076797 -1.487122 16,600 167 247 -1344
2019-06-18 12:01:17 GMT 52.080048 -1.488266 16,800 167 249 -1408
2019-06-18 12:01:14 GMT 52.082645 -1.489197 16,700 167 248 -1408
2019-06-18 12:01:11 GMT 52.086456 -1.490479 16,700 167 248 -1408
2019-06-18 12:01:08 GMT 52.091068 -1.492179 16,800 167 249 -1408
2019-06-18 12:01:05 GMT 52.093678 -1.493042 16,900 167 250 -1408
2019-06-18 12:01:02 GMT 52.096748 -1.494141 16,900 167 250 -1408
2019-06-18 12:00:59 GMT 52.100147 -1.495318 17,200 167 251 -1344
2019-06-18 12:00:55 GMT 52.104103 -1.496730 17,100 167 251 -1344
2019-06-18 12:00:52 GMT 52.107651 -1.497955 17,200 167 252 -1408
2019-06-18 12:00:49 GMT 52.112640 -1.499710 17,200 167 252 -1408
2019-06-18 12:00:46 GMT 52.116211 -1.500931 17,300 167 253 -1408
2019-06-18 12:00:43 GMT 52.118816 -1.501831 17,400 167 253 -1408
2019-06-18 12:00:40 GMT 52.122166 -1.503008 17,400 167 253 -1408
2019-06-18 12:00:37 GMT 52.129055 -1.505362 17,500 167 254 -1408
2019-06-18 12:00:34 GMT 52.129055 -1.505362 17,700 168 255 -1344
2019-06-18 12:00:31 GMT 52.131958 -1.506348 17,600 168 256 -1344
2019-06-18 12:00:28 GMT 52.135757 -1.507645 17,800 168 256 -1344
2019-06-18 12:00:25 GMT 52.139343 -1.508894 17,800 168 257 -1408
2019-06-18 12:00:22 GMT 52.142231 -1.509914 17,900 168 257 -1408
2019-06-18 12:00:19 GMT 52.145256 -1.510934 18,000 168 257 -1344
2019-06-18 12:00:16 GMT 52.149960 -1.512582 18,000 168 258 -1344
2019-06-18 12:00:13 GMT 52.153076 -1.513602 18,100 168 258 -1344
2019-06-18 12:00:10 GMT 52.157318 -1.515045 18,100 168 259 -1344
2019-06-18 12:00:07 GMT 52.159882 -1.515961 18,200 168 259 -1408
2019-06-18 12:00:04 GMT 52.164001 -1.517334 18,400 168 260 -1280
2019-06-18 12:00:00 GMT 52.168579 -1.518936 18,400 168 260 -1280
2019-06-18 11:59:57 GMT 52.175327 -1.521214 18,400 168 266 -1536
2019-06-18 11:59:54 GMT 52.175327 -1.521214 18,600 168 262 -1408
2019-06-18 11:59:51 GMT 52.179474 -1.522598 18,500 168 263 -1408
2019-06-18 11:59:48 GMT 52.181751 -1.523411 18,600 168 263 -1472
2019-06-18 11:59:45 GMT 52.187119 -1.525192 18,700 168 264 -1472
2019-06-18 11:59:42 GMT 52.189621 -1.526079 18,700 168 264 -1536
2019-06-18 11:59:39 GMT 52.193951 -1.527492 18,800 168 265 -1536
2019-06-18 11:59:36 GMT 52.197647 -1.528778 19,200 168 266 -1536
2019-06-18 11:59:30 GMT 52.203308 -1.530709 19,000 168 266 -1600
2019-06-18 11:59:27 GMT 52.208725 -1.532593 19,900 167 246 64
2019-06-18 11:59:24 GMT 52.211498 -1.533534 19,300 168 265 -1600
2019-06-18 11:59:21 GMT 52.216293 -1.535182 19,300 168 264 -1664
2019-06-18 11:59:18 GMT 52.218342 -1.535810 19,400 168 257 -1600
2019-06-18 11:59:15 GMT 52.222954 -1.537458 19,500 168 262 -1728
2019-06-18 11:59:12 GMT 52.226070 -1.538478 19,700 167 246 -128
2019-06-18 11:59:09 GMT 52.228863 -1.539420 19,600 168 257 -1600
2019-06-18 11:59:06 GMT 52.233536 -1.541061 19,800 167 252 -1216
2019-06-18 11:59:03 GMT 52.237335 -1.542358 19,800 167 252 -1216
2019-06-18 11:59:00 GMT 52.239292 -1.543030 19,900 167 248 -768
2019-06-18 11:58:57 GMT 52.242828 -1.544266 19,900 168 250 -960
2019-06-18 11:58:54 GMT 52.246216 -1.545410 19,900 167 249 -832
2019-06-18 11:58:51 GMT 52.249672 -1.546640 20,000 167 247 -320
2019-06-18 11:58:48 GMT 52.254143 -1.548209 20,000 167 247 -384
2019-06-18 11:58:45 GMT 52.257076 -1.549229 20,000 167 246 -256
2019-06-18 11:58:42 GMT 52.259628 -1.550140 20,000 167 246 -64
2019-06-18 11:58:39 GMT 52.266384 -1.552525 20,000 167 246 0
2019-06-18 11:58:33 GMT 52.270203 -1.553859 20,000 167 246 64
2019-06-18 11:58:30 GMT 52.273499 -1.555023 20,000 167 246 -64
2019-06-18 11:58:27 GMT 52.276520 -1.556091 20,000 167 246 0
2019-06-18 11:58:23 GMT 52.281418 -1.557846 20,000 167 246 0
2019-06-18 11:58:20 GMT 52.284214 -1.558803 20,000 167 247 0
2019-06-18 11:58:17 GMT 52.287102 -1.559823 20,000 167 246 64
2019-06-18 11:58:14 GMT 52.290455 -1.561000 20,000 167 246 0
2019-06-18 11:58:11 GMT 52.293804 -1.562256 20,000 167 246 -64
2019-06-18 11:58:08 GMT 52.297714 -1.563568 20,000 167 246 -64
2019-06-18 11:58:05 GMT 52.300694 -1.564689 20,000 167 246 64
2019-06-18 11:58:02 GMT 52.304836 -1.566101 20,000 167 246 0
2019-06-18 11:57:56 GMT 52.310394 -1.568146 20,000 167 246 0
2019-06-18 11:57:53 GMT 52.313507 -1.569214 20,000 167 246 64
2019-06-18 11:57:50 GMT 52.316990 -1.570417 20,000 167 246 -64
2019-06-18 11:57:47 GMT 52.323875 -1.572928 20,000 167 246 0
2019-06-18 11:57:41 GMT 52.328430 -1.574554 20,000 167 246 0
2019-06-18 11:57:37 GMT 52.331699 -1.575675 20,000 167 247 64
2019-06-18 11:57:34 GMT 52.335571 -1.577072 20,000 167 247 -64
2019-06-18 11:57:31 GMT 52.339828 -1.578598 20,000 167 247 -128
2019-06-18 11:57:28 GMT 52.343170 -1.579742 20,000 167 247 -64
2019-06-18 11:57:25 GMT 52.345058 -1.580462 20,000 167 247 0
2019-06-18 11:57:22 GMT 52.348206 -1.581573 20,000 167 247 0
2019-06-18 11:57:19 GMT 52.352005 -1.582870 20,000 167 247 0
2019-06-18 11:57:16 GMT 52.355713 -1.584167 20,000 167 247 0
2019-06-18 11:57:13 GMT 52.359631 -1.585563 20,000 167 247 0
2019-06-18 11:57:10 GMT 52.362854 -1.586761 20,000 167 247 64
2019-06-18 11:57:07 GMT 52.366798 -1.588152 20,000 167 247 0
2019-06-18 11:57:03 GMT 52.369904 -1.589203 20,000 167 247 0
2019-06-18 11:57:00 GMT 52.373383 -1.590424 20,000 167 247 64
2019-06-18 11:56:57 GMT 52.377411 -1.591873 20,000 167 247 64
2019-06-18 11:56:53 GMT 52.385605 -1.594744 20,000 167 248 64
2019-06-18 11:56:50 GMT 52.385605 -1.594744 20,000 167 248 0
2019-06-18 11:56:47 GMT 52.388260 -1.595686 20,000 167 248 0
2019-06-18 11:56:43 GMT 52.391659 -1.596941 20,000 167 248 64
2019-06-18 11:56:40 GMT 52.395584 -1.598282 20,000 167 248 64
2019-06-18 11:56:37 GMT 52.399292 -1.599609 20,000 167 249 0
2019-06-18 11:56:34 GMT 52.402771 -1.600876 20,000 167 249 64
2019-06-18 11:56:31 GMT 52.406616 -1.602173 20,000 167 249 64
2019-06-18 11:56:27 GMT 52.410976 -1.603768 20,000 167 249 0
2019-06-18 11:56:24 GMT 52.414032 -1.604843 20,000 167 250 64
2019-06-18 11:56:21 GMT 52.417419 -1.606064 19,375 167 250 -64
2019-06-18 11:56:18 GMT 52.420715 -1.607208 20,000 167 250 0
2019-06-18 11:56:15 GMT 52.425156 -1.608810 20,000 167 250 64
2019-06-18 11:56:12 GMT 52.427410 -1.609654 20,000 167 251 0
2019-06-18 11:56:08 GMT 52.432297 -1.611328 20,000 167 251 0
2019-06-18 11:56:05 GMT 52.435696 -1.612558 20,000 167 253 64
2019-06-18 11:56:02 GMT 52.439804 -1.614075 20,000 167 252 0
2019-06-18 11:55:58 GMT 52.442642 -1.615067 20,000 167 254 64
2019-06-18 11:55:55 GMT 52.446762 -1.616592 20,000 167 254 64
2019-06-18 11:55:52 GMT 52.450287 -1.617889 20,000 167 254 64
2019-06-18 11:55:49 GMT 52.454456 -1.619385 20,000 167 255 0
2019-06-18 11:55:46 GMT 52.457764 -1.620562 20,000 167 255 0
2019-06-18 11:55:42 GMT 52.462601 -1.622314 20,000 167 256 0
2019-06-18 11:55:39 GMT 52.465954 -1.623544 20,000 167 257 -64
2019-06-18 11:55:36 GMT 52.469120 -1.624721 20,000 167 258 -128
2019-06-18 11:55:33 GMT 52.472351 -1.625900 20,000 167 258 -128
2019-06-18 11:55:30 GMT 52.475731 -1.627075 20,000 167 258 -128
2019-06-18 11:55:27 GMT 52.479355 -1.628418 20,000 167 259 -64
2019-06-18 11:55:24 GMT 52.482479 -1.629586 20,000 167 260 -256
2019-06-18 11:55:21 GMT 52.486252 -1.630920 20,300 167 260 -704
2019-06-18 11:55:18 GMT 52.490253 -1.632411 20,000 167 260 -640
2019-06-18 11:55:15 GMT 52.492950 -1.633377 20,100 167 261 -320
2019-06-18 11:55:12 GMT 52.496586 -1.634687 20,100 167 260 -640
2019-06-18 11:55:08 GMT 52.501289 -1.636414 20,200 167 261 -704
2019-06-18 11:55:05 GMT 52.505104 -1.637748 21,000 167 261 -640
2019-06-18 11:55:02 GMT 52.508129 -1.638846 20,200 167 260 -640
2019-06-18 11:54:59 GMT 52.516296 -1.641769 20,300 167 261 -640
2019-06-18 11:54:56 GMT 52.516296 -1.641769 20,300 167 261 -640
2019-06-18 11:54:50 GMT 52.523575 -1.644363 20,300 167 260 -704
2019-06-18 11:54:47 GMT 52.526474 -1.645438 20,400 167 260 -640
2019-06-18 11:54:43 GMT 52.532570 -1.647635 20,400 167 259 -704
2019-06-18 11:54:40 GMT 52.534561 -1.648331 20,500 167 263 -768
2019-06-18 11:54:37 GMT 52.537628 -1.649399 20,500 167 259 -704
2019-06-18 11:54:34 GMT 52.541245 -1.650696 20,500 167 260 -704
2019-06-18 11:54:31 GMT 52.545700 -1.652344 20,500 167 260 -640
2019-06-18 11:54:27 GMT 52.553696 -1.655197 20,600 167 260 -704
2019-06-18 11:54:24 GMT 52.553696 -1.655197 20,600 167 260 -704
2019-06-18 11:54:21 GMT 52.557816 -1.656647 20,700 167 260 -704
2019-06-18 11:54:18 GMT 52.560287 -1.657562 20,700 167 260 -704
2019-06-18 11:54:15 GMT 52.564041 -1.658936 20,700 167 260 -704
2019-06-18 11:54:12 GMT 52.568161 -1.660385 20,700 167 260 -640
2019-06-18 11:54:08 GMT 52.572372 -1.661911 20,800 167 261 -640
2019-06-18 11:54:05 GMT 52.576630 -1.663513 20,900 167 261 -640
2019-06-18 11:54:02 GMT 52.579422 -1.664505 20,900 167 261 -640
2019-06-18 11:53:59 GMT 52.583450 -1.665955 20,900 167 261 -640
2019-06-18 11:53:56 GMT 52.586849 -1.667175 20,900 167 261 -640
2019-06-18 11:53:53 GMT 52.590157 -1.668352 20,900 167 261 -640
2019-06-18 11:53:50 GMT 52.592529 -1.669216 21,000 167 261 -640
2019-06-18 11:53:47 GMT 52.596405 -1.670685 21,000 167 262 -640
2019-06-18 11:53:44 GMT 52.600769 -1.672198 21,100 167 262 -640
2019-06-18 11:53:41 GMT 52.603844 -1.673296 21,100 167 262 -640
2019-06-18 11:53:38 GMT 52.607658 -1.674709 21,050 167 263 -896
2019-06-18 11:53:35 GMT 52.611664 -1.676121 21,200 167 263 -896
2019-06-18 11:53:31 GMT 52.615814 -1.677628 21,200 167 263 -896
2019-06-18 11:53:27 GMT 52.620228 -1.679182 21,300 167 263 -832
2019-06-18 11:53:24 GMT 52.623768 -1.680437 21,300 167 263 -896
2019-06-18 11:53:21 GMT 52.628632 -1.682205 21,400 167 263 -896
2019-06-18 11:53:15 GMT 52.635406 -1.684596 21,400 167 263 -896
2019-06-18 11:53:12 GMT 52.639572 -1.686096 21,500 167 262 -896
2019-06-18 11:53:09 GMT 52.642155 -1.687029 21,500 167 262 -896
2019-06-18 11:53:06 GMT 52.646065 -1.688442 22,100 167 260 -832
2019-06-18 11:53:03 GMT 52.648907 -1.689462 21,600 167 262 -832
2019-06-18 11:53:00 GMT 52.653259 -1.691055 21,700 167 262 -832
2019-06-18 11:52:57 GMT 52.655518 -1.691816 21,700 167 262 -896
2019-06-18 11:52:54 GMT 52.659439 -1.693268 21,800 167 262 -896
2019-06-18 11:52:51 GMT 52.662823 -1.694484 21,800 167 262 -896
2019-06-18 11:52:48 GMT 52.671623 -1.697623 21,800 167 262 -832
2019-06-18 11:52:45 GMT 52.671623 -1.697623 21,900 167 262 -832
2019-06-18 11:52:42 GMT 52.679630 -1.700527 21,900 167 262 -896
2019-06-18 11:52:38 GMT 52.679630 -1.700527 22,000 167 262 -896
2019-06-18 11:52:34 GMT 52.683910 -1.702018 22,200 167 261 -896
2019-06-18 11:52:31 GMT 52.686241 -1.702881 22,100 167 262 -832
2019-06-18 11:52:28 GMT 52.690289 -1.704293 22,100 167 262 -832
2019-06-18 11:52:25 GMT 52.694046 -1.705627 22,200 167 261 -896
2019-06-18 11:52:22 GMT 52.698296 -1.707197 22,200 167 261 -896
2019-06-18 11:52:18 GMT 52.702068 -1.708531 22,200 167 261 -832
2019-06-18 11:52:15 GMT 52.705605 -1.709787 22,300 167 261 -896
2019-06-18 11:52:12 GMT 52.709061 -1.710968 22,300 167 260 -896
2019-06-18 11:52:09 GMT 52.713196 -1.712455 22,400 167 260 -832
2019-06-18 11:52:06 GMT 52.715988 -1.713475 22,400 167 260 -832
2019-06-18 11:52:02 GMT 52.720825 -1.715164 23,000 167 251 -960
2019-06-18 11:51:59 GMT 52.724506 -1.716457 22,500 167 260 -832
2019-06-18 11:51:56 GMT 52.729301 -1.718183 22,600 167 259 -832
2019-06-18 11:51:53 GMT 52.733505 -1.719666 22,600 167 258 -896
2019-06-18 11:51:50 GMT 52.735027 -1.720224 22,700 167 252 -960
2019-06-18 11:51:47 GMT 52.738750 -1.721479 22,700 167 256 -1024
2019-06-18 11:51:44 GMT 52.741196 -1.722336 22,700 167 254 -1024
2019-06-18 11:51:41 GMT 52.745220 -1.723755 22,800 167 254 -1088
2019-06-18 11:51:38 GMT 52.750015 -1.725481 22,900 167 251 -960
2019-06-18 11:51:35 GMT 52.755569 -1.727448 22,900 167 249 -896
2019-06-18 11:51:32 GMT 52.755569 -1.727448 23,000 167 245 -64
2019-06-18 11:51:29 GMT 52.758957 -1.728668 23,000 167 246 -320
2019-06-18 11:51:26 GMT 52.762527 -1.729965 23,000 167 246 -512
2019-06-18 11:51:23 GMT 52.765751 -1.731053 23,000 167 245 -64
2019-06-18 11:51:20 GMT 52.769394 -1.732407 23,000 167 245 0
2019-06-18 11:51:17 GMT 52.771709 -1.733250 23,000 167 245 0
2019-06-18 11:51:14 GMT 52.779484 -1.736075 23,000 167 245 0
2019-06-18 11:51:10 GMT 52.779484 -1.736075 23,000 167 245 0
2019-06-18 11:51:07 GMT 52.783035 -1.737366 23,000 167 245 0
2019-06-18 11:51:04 GMT 52.786240 -1.738510 23,000 167 245 0
2019-06-18 11:51:01 GMT 52.790863 -1.740189 23,000 167 245 -64
2019-06-18 11:50:57 GMT 52.795303 -1.741791 23,000 167 245 64
2019-06-18 11:50:54 GMT 52.801163 -1.743927 23,000 167 245 64
2019-06-18 11:50:51 GMT 52.801163 -1.743927 23,000 167 245 0
2019-06-18 11:50:48 GMT 52.804482 -1.745100 23,000 167 245 0
2019-06-18 11:50:45 GMT 52.808346 -1.746512 23,000 167 245 0
2019-06-18 11:50:41 GMT 52.813019 -1.748276 23,000 167 245 0
2019-06-18 11:50:38 GMT 52.815216 -1.749039 23,000 167 245 64
2019-06-18 11:50:35 GMT 52.819519 -1.750593 23,000 167 245 64
2019-06-18 11:50:32 GMT 52.822872 -1.751848 23,000 167 245 64
2019-06-18 11:50:29 GMT 52.826294 -1.753082 23,000 167 245 0
2019-06-18 11:50:26 GMT 52.829201 -1.754124 23,000 167 245 0
2019-06-18 11:50:23 GMT 52.831970 -1.755142 23,000 167 245 0
2019-06-18 11:50:20 GMT 52.839386 -1.757812 23,000 167 245 -64
2019-06-18 11:50:17 GMT 52.839386 -1.757812 23,000 167 245 -64
2019-06-18 11:50:14 GMT 52.842911 -1.759109 23,000 167 245 0
2019-06-18 11:50:11 GMT 52.846252 -1.760330 23,000 167 245 0
2019-06-18 11:50:08 GMT 52.849545 -1.761579 23,000 167 245 64
2019-06-18 11:50:05 GMT 52.852890 -1.762772 23,000 167 245 64
2019-06-18 11:50:02 GMT 52.856415 -1.764069 23,000 167 245 0
2019-06-18 11:49:59 GMT 52.862274 -1.766205 23,000 167 245 0
2019-06-18 11:49:56 GMT 52.866257 -1.767622 23,000 167 245 0
2019-06-18 11:49:53 GMT 52.866257 -1.767622 23,000 167 245 64
2019-06-18 11:49:50 GMT 52.869843 -1.768877 23,000 167 245 0
2019-06-18 11:49:47 GMT 52.872028 -1.769741 23,000 167 245 0
2019-06-18 11:49:44 GMT 52.875458 -1.770935 23,000 167 245 0
2019-06-18 11:49:41 GMT 52.880356 -1.772766 23,000 167 246 64
2019-06-18 11:49:38 GMT 52.882141 -1.773376 23,000 167 245 0
2019-06-18 11:49:32 GMT 52.889465 -1.776047 23,000 167 246 64
2019-06-18 11:49:29 GMT 52.892487 -1.777115 23,000 167 246 64
2019-06-18 11:49:26 GMT 52.894699 -1.777980 23,000 167 246 0
2019-06-18 11:49:23 GMT 52.898346 -1.779251 23,000 167 246 0
2019-06-18 11:49:20 GMT 52.902943 -1.780962 23,000 167 246 0
2019-06-18 11:49:17 GMT 52.905594 -1.781904 23,000 167 246 0
2019-06-18 11:49:13 GMT 52.913727 -1.784821 23,000 167 246 0
2019-06-18 11:49:10 GMT 52.913727 -1.784821 23,000 167 246 -64
2019-06-18 11:49:07 GMT 52.917187 -1.786063 23,000 167 246 0
2019-06-18 11:49:04 GMT 52.919495 -1.786957 23,000 167 246 0
2019-06-18 11:49:01 GMT 52.922836 -1.788177 23,000 167 246 0
2019-06-18 11:48:58 GMT 52.925983 -1.789280 23,000 167 246 0
2019-06-18 11:48:55 GMT 52.933090 -1.791840 23,000 167 246 0
2019-06-18 11:48:49 GMT 52.936432 -1.793060 23,000 167 246 64
2019-06-18 11:48:46 GMT 52.940323 -1.794460 23,000 167 246 0
2019-06-18 11:48:43 GMT 52.943802 -1.795731 23,000 167 246 0
2019-06-18 11:48:40 GMT 52.946228 -1.796570 23,000 167 246 0
2019-06-18 11:48:37 GMT 52.950565 -1.798148 23,000 167 246 0
2019-06-18 11:48:34 GMT 52.953262 -1.799168 23,000 167 246 0
2019-06-18 11:48:31 GMT 52.956573 -1.800385 23,000 167 246 0
2019-06-18 11:48:28 GMT 52.961037 -1.801993 23,000 167 246 0
2019-06-18 11:48:25 GMT 52.962936 -1.802673 23,000 167 246 64
2019-06-18 11:48:22 GMT 52.967461 -1.804347 23,000 167 246 0
2019-06-18 11:48:19 GMT 52.973282 -1.806388 23,000 167 246 0
2019-06-18 11:48:16 GMT 52.973282 -1.806388 23,000 167 246 0
2019-06-18 11:48:13 GMT 52.977814 -1.808090 23,000 167 246 0
2019-06-18 11:48:10 GMT 52.979939 -1.808820 23,000 167 246 0
2019-06-18 11:48:07 GMT 52.987976 -1.811752 23,000 167 246 0
2019-06-18 11:48:04 GMT 52.987976 -1.811752 23,000 167 246 0
2019-06-18 11:48:01 GMT 52.990318 -1.812587 23,000 167 246 0
2019-06-18 11:47:55 GMT 52.997223 -1.815109 23,000 167 246 0
2019-06-18 11:47:52 GMT 53.001118 -1.816511 23,000 167 246 0
2019-06-18 11:47:48 GMT 53.004005 -1.817610 23,000 167 246 0
2019-06-18 11:47:45 GMT 53.008347 -1.819153 23,000 167 246 0
2019-06-18 11:47:42 GMT 53.011688 -1.820374 23,000 167 246 0
2019-06-18 11:47:38 GMT 53.015320 -1.821769 23,000 167 246 0
2019-06-18 11:47:35 GMT 53.018436 -1.822867 23,000 167 246 0
2019-06-18 11:47:32 GMT 53.022205 -1.824280 23,000 167 246 0
2019-06-18 11:47:29 GMT 53.025558 -1.825485 23,000 167 246 0
2019-06-18 11:47:26 GMT 53.029984 -1.827105 23,000 167 246 0
2019-06-18 11:47:23 GMT 53.033020 -1.828232 23,000 167 246 0
2019-06-18 11:47:20 GMT 53.035904 -1.829300 23,000 167 246 0
2019-06-18 11:47:17 GMT 53.039433 -1.830558 23,000 167 246 0
2019-06-18 11:47:14 GMT 53.041901 -1.831436 23,000 167 246 0
2019-06-18 11:47:11 GMT 53.046227 -1.833069 23,000 167 246 0
2019-06-18 11:47:08 GMT 53.048882 -1.834011 23,000 167 246 0
2019-06-18 11:47:05 GMT 53.052200 -1.835251 23,000 167 246 0
2019-06-18 11:47:02 GMT 53.055679 -1.836548 23,000 167 246 0
2019-06-18 11:46:59 GMT 53.059311 -1.837856 23,000 167 246 0
2019-06-18 11:46:53 GMT 53.066208 -1.840363 23,000 167 246 0
2019-06-18 11:46:50 GMT 53.068897 -1.841309 23,000 167 246 0
2019-06-18 11:46:46 GMT 53.073322 -1.842957 23,000 167 246 0
2019-06-18 11:46:43 GMT 53.081238 -1.845860 23,000 167 246 0
2019-06-18 11:46:40 GMT 53.081238 -1.845860 23,000 167 246 0
2019-06-18 11:46:37 GMT 53.087101 -1.847979 23,000 167 246 0
2019-06-18 11:46:34 GMT 53.087101 -1.847979 23,000 167 246 0
2019-06-18 11:46:31 GMT 53.094131 -1.850586 23,000 167 246 0
2019-06-18 11:46:28 GMT 53.094131 -1.850586 23,000 167 246 0
2019-06-18 11:46:25 GMT 53.096458 -1.851439 23,000 167 246 0
2019-06-18 11:46:22 GMT 53.100464 -1.852893 23,000 167 246 0
2019-06-18 11:46:19 GMT 53.103115 -1.853862 23,000 167 246 0
2019-06-18 11:46:16 GMT 53.110004 -1.856366 23,000 167 246 0
2019-06-18 11:46:10 GMT 53.113358 -1.857578 23,000 167 246 0
2019-06-18 11:46:07 GMT 53.117249 -1.858965 23,000 167 246 0
2019-06-18 11:46:03 GMT 53.125599 -1.862021 23,000 167 246 0
2019-06-18 11:46:00 GMT 53.125599 -1.862021 23,000 167 246 0
2019-06-18 11:45:57 GMT 53.132023 -1.864445 23,000 167 246 0
2019-06-18 11:45:54 GMT 53.134369 -1.865243 23,000 167 246 0
2019-06-18 11:45:51 GMT 53.134369 -1.865243 23,000 167 246 0
2019-06-18 11:45:48 GMT 53.138912 -1.866949 23,000 167 246 0
2019-06-18 11:45:45 GMT 53.140915 -1.867676 23,000 167 246 0
2019-06-18 11:45:42 GMT 53.145153 -1.869211 23,000 167 246 0
2019-06-18 11:45:39 GMT 53.148689 -1.870503 23,000 167 246 0
2019-06-18 11:45:36 GMT 53.154510 -1.872684 23,000 167 246 0
2019-06-18 11:45:33 GMT 53.154510 -1.872684 23,000 167 246 0
2019-06-18 11:45:30 GMT 53.158951 -1.874268 23,000 167 246 0
2019-06-18 11:45:27 GMT 53.161167 -1.875108 23,000 167 246 0
2019-06-18 11:45:23 GMT 53.165401 -1.876643 23,000 167 246 0
2019-06-18 11:45:20 GMT 53.168289 -1.877774 23,000 167 246 0
2019-06-18 11:45:17 GMT 53.171951 -1.879133 23,000 167 246 0
2019-06-18 11:45:14 GMT 53.175293 -1.880310 23,000 167 246 0
2019-06-18 11:45:11 GMT 53.178993 -1.881732 23,000 167 246 0
2019-06-18 11:45:08 GMT 53.183441 -1.883371 23,000 167 246 64
2019-06-18 11:45:05 GMT 53.185234 -1.883994 23,000 167 247 0
2019-06-18 11:45:02 GMT 53.189236 -1.885529 23,000 167 247 0
2019-06-18 11:44:59 GMT 53.195389 -1.887765 23,000 167 246 0
2019-06-18 11:44:53 GMT 53.202301 -1.890355 23,000 167 247 0
2019-06-18 11:44:50 GMT 53.206284 -1.891846 23,000 167 247 0
2019-06-18 11:44:47 GMT 53.206284 -1.891846 23,000 167 247 0
2019-06-18 11:44:44 GMT 53.208984 -1.892787 23,000 167 247 0
2019-06-18 11:44:41 GMT 53.212002 -1.893930 23,000 167 247 0
2019-06-18 11:44:38 GMT 53.215439 -1.895220 23,000 167 247 0
2019-06-18 11:44:35 GMT 53.219925 -1.896868 23,000 167 247 0
2019-06-18 11:44:32 GMT 53.223171 -1.898050 23,000 167 247 0
2019-06-18 11:44:29 GMT 53.225407 -1.898858 23,000 167 247 0
2019-06-18 11:44:26 GMT 53.229412 -1.900392 23,000 167 247 0
2019-06-18 11:44:23 GMT 53.232651 -1.901576 23,000 167 247 0
2019-06-18 11:44:20 GMT 53.235535 -1.902675 23,000 167 247 0
2019-06-18 11:44:17 GMT 53.239468 -1.904108 23,000 167 247 0
2019-06-18 11:44:14 GMT 53.242905 -1.905422 23,000 167 247 0
2019-06-18 11:44:10 GMT 53.246933 -1.906913 23,000 167 247 64
2019-06-18 11:44:07 GMT 53.251831 -1.908718 23,000 167 247 0
2019-06-18 11:44:03 GMT 53.255432 -1.910005 23,000 167 247 0
2019-06-18 11:44:00 GMT 53.258331 -1.911150 23,000 167 247 0
2019-06-18 11:43:57 GMT 53.261032 -1.912092 25,475 167 247 0
2019-06-18 11:43:54 GMT 53.265583 -1.913802 23,000 167 247 0
2019-06-18 11:43:51 GMT 53.269402 -1.915175 23,000 167 248 0
2019-06-18 11:43:48 GMT 53.272339 -1.916251 23,000 167 248 0
2019-06-18 11:43:42 GMT 53.278061 -1.918370 23,000 167 248 0
2019-06-18 11:43:39 GMT 53.282547 -1.920018 23,000 167 248 0
2019-06-18 11:43:36 GMT 53.284901 -1.920911 23,000 167 248 0
2019-06-18 11:43:33 GMT 53.288719 -1.922284 23,000 167 248 0
2019-06-18 11:43:30 GMT 53.292435 -1.923628 23,000 167 248 0
2019-06-18 11:43:27 GMT 53.294907 -1.924569 23,000 167 248 0
2019-06-18 11:43:24 GMT 53.298248 -1.925825 23,000 167 248 0
2019-06-18 11:43:21 GMT 53.301865 -1.927159 23,000 167 249 0
2019-06-18 11:43:18 GMT 53.305805 -1.928585 23,000 167 248 0
2019-06-18 11:43:15 GMT 53.308456 -1.929635 23,000 167 249 0
2019-06-18 11:43:12 GMT 53.312973 -1.931251 23,000 167 249 0
2019-06-18 11:43:09 GMT 53.319489 -1.933675 23,000 167 249 0
2019-06-18 11:43:06 GMT 53.319489 -1.933675 23,000 167 249 0
2019-06-18 11:43:02 GMT 53.323792 -1.935242 23,000 167 249 0
2019-06-18 11:42:59 GMT 53.326584 -1.936340 23,000 167 249 0
2019-06-18 11:42:56 GMT 53.334572 -1.939248 23,000 167 249 0
2019-06-18 11:42:53 GMT 53.334572 -1.939248 23,000 167 249 0
2019-06-18 11:42:50 GMT 53.337505 -1.940379 23,000 167 249 0
2019-06-18 11:42:44 GMT 53.343327 -1.942561 23,000 167 249 0
2019-06-18 11:42:41 GMT 53.347191 -1.943934 23,000 167 249 0
2019-06-18 11:42:38 GMT 53.350307 -1.945146 23,000 167 249 0
2019-06-18 11:42:35 GMT 53.354404 -1.946600 23,000 167 249 0
2019-06-18 11:42:32 GMT 53.358307 -1.948111 23,000 167 249 0
2019-06-18 11:42:29 GMT 53.361153 -1.949185 23,000 167 249 0
2019-06-18 11:42:25 GMT 53.364738 -1.950477 23,000 167 249 0
2019-06-18 11:42:22 GMT 53.368790 -1.952012 23,000 167 249 0
2019-06-18 11:42:18 GMT 53.372864 -1.953526 23,000 167 249 0
2019-06-18 11:42:14 GMT 53.378052 -1.955405 23,000 167 249 0
2019-06-18 11:42:11 GMT 53.381405 -1.956697 23,000 167 249 0
2019-06-18 11:42:08 GMT 53.384804 -1.957909 23,000 167 249 0
2019-06-18 11:42:04 GMT 53.389389 -1.959647 23,000 167 249 0
2019-06-18 11:42:00 GMT 53.393234 -1.961060 23,000 167 249 0
2019-06-18 11:41:57 GMT 53.396622 -1.962315 23,000 167 249 0
2019-06-18 11:41:54 GMT 53.399654 -1.963483 23,000 167 249 64
2019-06-18 11:41:51 GMT 53.403004 -1.964695 23,000 167 249 0
2019-06-18 11:41:48 GMT 53.407520 -1.966391 23,000 167 249 0
2019-06-18 11:41:42 GMT 53.413010 -1.968436 23,000 167 249 0
2019-06-18 11:41:39 GMT 53.417435 -1.970107 23,000 167 249 0
2019-06-18 11:41:36 GMT 53.419785 -1.971026 23,000 167 249 0
2019-06-18 11:41:33 GMT 53.423954 -1.972531 23,000 167 249 0
2019-06-18 11:41:30 GMT 53.426888 -1.973662 23,000 167 249 64
2019-06-18 11:41:27 GMT 53.430359 -1.974949 23,000 167 249 64
2019-06-18 11:41:24 GMT 53.433975 -1.976283 23,000 167 249 0
2019-06-18 11:41:21 GMT 53.436447 -1.977225 23,000 167 249 0
2019-06-18 11:41:18 GMT 53.441273 -1.978993 23,000 167 249 0
2019-06-18 11:41:14 GMT 53.445236 -1.980443 23,000 167 249 0
2019-06-18 11:41:10 GMT 53.449860 -1.982169 23,000 167 249 0
2019-06-18 11:41:07 GMT 53.452675 -1.983275 23,000 167 249 0
2019-06-18 11:41:04 GMT 53.459198 -1.985622 23,000 167 249 0
2019-06-18 11:41:01 GMT 53.459198 -1.985622 23,000 167 249 0
2019-06-18 11:40:58 GMT 53.464268 -1.987556 23,000 167 249 0
2019-06-18 11:40:55 GMT 53.466503 -1.988364 23,000 167 249 0
2019-06-18 11:40:52 GMT 53.469543 -1.989467 23,000 167 249 0
2019-06-18 11:40:49 GMT 53.473064 -1.990787 23,000 167 249 0
2019-06-18 11:40:46 GMT 53.475632 -1.991743 23,000 167 249 0
2019-06-18 11:40:43 GMT 53.480621 -1.993548 23,000 167 249 0
2019-06-18 11:40:40 GMT 53.483093 -1.994489 23,000 167 249 -64
2019-06-18 11:40:37 GMT 53.486893 -1.995902 23,000 167 249 -64
2019-06-18 11:40:34 GMT 53.490150 -1.997088 23,000 167 249 64
2019-06-18 11:40:31 GMT 53.493210 -1.998256 23,000 167 249 0
2019-06-18 11:40:28 GMT 53.497467 -1.999826 23,000 167 249 0
2019-06-18 11:40:25 GMT 53.500397 -2.000924 23,000 167 249 0
2019-06-18 11:40:22 GMT 53.503006 -2.001866 23,000 167 249 0
2019-06-18 11:40:19 GMT 53.506943 -2.003278 23,000 167 249 0
2019-06-18 11:40:16 GMT 53.510559 -2.004613 23,000 167 249 0
2019-06-18 11:40:12 GMT 53.514496 -2.006136 23,000 167 249 0
2019-06-18 11:40:09 GMT 53.518547 -2.007590 23,000 167 250 0
2019-06-18 11:40:06 GMT 53.521591 -2.008772 23,000 167 251 0
2019-06-18 11:40:03 GMT 53.524979 -2.010027 23,000 167 250 0
2019-06-18 11:40:00 GMT 53.529510 -2.011675 23,000 167 251 -64
2019-06-18 11:39:57 GMT 53.531441 -2.012356 23,000 167 251 -64
2019-06-18 11:39:54 GMT 53.534729 -2.013559 23,000 167 251 0
2019-06-18 11:39:51 GMT 53.539078 -2.015206 23,000 167 251 0
2019-06-18 11:39:48 GMT 53.544525 -2.017247 23,000 167 251 -64
2019-06-18 11:39:42 GMT 53.547821 -2.018424 23,000 167 251 0
2019-06-18 11:39:39 GMT 53.553928 -2.020677 23,000 167 251 0
2019-06-18 11:39:36 GMT 53.555511 -2.021323 23,000 167 251 0
2019-06-18 11:39:33 GMT 53.558350 -2.022348 23,000 167 251 0
2019-06-18 11:39:30 GMT 53.562771 -2.023989 23,000 167 251 0
2019-06-18 11:39:27 GMT 53.565613 -2.025039 23,000 167 251 0
2019-06-18 11:39:24 GMT 53.569614 -2.026493 23,000 167 251 0
2019-06-18 11:39:20 GMT 53.575294 -2.028593 23,000 167 251 0
2019-06-18 11:39:17 GMT 53.577110 -2.029320 23,000 167 251 0
2019-06-18 11:39:14 GMT 53.581394 -2.030855 23,000 167 251 0
2019-06-18 11:39:10 GMT 53.588238 -2.033440 23,000 167 251 0
2019-06-18 11:39:07 GMT 53.588238 -2.033440 23,000 167 251 0
2019-06-18 11:39:04 GMT 53.591537 -2.034668 23,000 167 251 0
2019-06-18 11:39:01 GMT 53.596069 -2.036316 23,000 167 252 0
2019-06-18 11:38:58 GMT 53.598358 -2.037179 23,000 167 252 0
2019-06-18 11:38:55 GMT 53.601334 -2.038278 23,000 167 253 64
2019-06-18 11:38:52 GMT 53.605179 -2.039690 23,000 167 253 64
2019-06-18 11:38:49 GMT 53.609184 -2.041195 23,000 167 253 0
2019-06-18 11:38:46 GMT 53.612816 -2.042568 23,000 167 253 0
2019-06-18 11:38:43 GMT 53.616959 -2.044103 23,000 167 253 0
2019-06-18 11:38:40 GMT 53.619240 -2.044911 23,000 167 253 0
2019-06-18 11:38:37 GMT 53.628204 -2.048322 23,000 167 253 0
2019-06-18 11:38:33 GMT 53.628204 -2.048322 23,000 167 252 0
2019-06-18 11:38:30 GMT 53.631180 -2.049421 23,000 167 252 -64
2019-06-18 11:38:27 GMT 53.633881 -2.050441 23,000 167 252 0
2019-06-18 11:38:24 GMT 53.640472 -2.052874 23,000 167 252 0
2019-06-18 11:38:21 GMT 53.640472 -2.052874 23,000 167 252 0
2019-06-18 11:38:17 GMT 53.650681 -2.056798 23,000 167 252 0
2019-06-18 11:38:13 GMT 53.650681 -2.056798 23,000 167 251 0
2019-06-18 11:38:10 GMT 53.653271 -2.057755 23,000 167 251 0
2019-06-18 11:38:07 GMT 53.657272 -2.059309 23,000 167 252 0
2019-06-18 11:38:04 GMT 53.660202 -2.060407 23,000 167 252 0
2019-06-18 11:38:01 GMT 53.663818 -2.061820 23,000 167 252 0
2019-06-18 11:37:58 GMT 53.667793 -2.063329 23,000 167 252 -64
2019-06-18 11:37:55 GMT 53.671425 -2.064703 23,000 167 252 0
2019-06-18 11:37:52 GMT 53.674255 -2.065822 23,000 167 252 -64
2019-06-18 11:37:49 GMT 53.677231 -2.066921 23,000 167 252 0
2019-06-18 11:37:46 GMT 53.680504 -2.068176 23,000 167 252 64
2019-06-18 11:37:43 GMT 53.687439 -2.070844 23,000 167 252 0
2019-06-18 11:37:40 GMT 53.687439 -2.070844 23,000 167 252 0
2019-06-18 11:37:37 GMT 53.690277 -2.071973 23,000 167 252 0
2019-06-18 11:37:34 GMT 53.695175 -2.073826 23,000 167 252 0
2019-06-18 11:37:27 GMT 53.702866 -2.076730 23,000 167 252 0
2019-06-18 11:37:24 GMT 53.704926 -2.077515 23,000 167 251 0
2019-06-18 11:37:21 GMT 53.708900 -2.079001 23,000 167 251 0
2019-06-18 11:37:18 GMT 53.716347 -2.081748 23,000 167 250 0
2019-06-18 11:37:15 GMT 53.716347 -2.081748 23,000 168 250 0
2019-06-18 11:37:12 GMT 53.719326 -2.082798 23,000 168 250 64
2019-06-18 11:37:09 GMT 53.723282 -2.084185 23,000 168 251 0
2019-06-18 11:37:06 GMT 53.725983 -2.085127 23,000 168 250 64
2019-06-18 11:37:03 GMT 53.729279 -2.086304 23,000 168 250 0
2019-06-18 11:37:00 GMT 53.732346 -2.087324 23,000 168 251 0
2019-06-18 11:36:57 GMT 53.735962 -2.088579 23,000 168 250 0
2019-06-18 11:36:54 GMT 53.740082 -2.089914 23,000 168 250 0
2019-06-18 11:36:51 GMT 53.743011 -2.090934 23,000 168 250 0
2019-06-18 11:36:48 GMT 53.746979 -2.092168 23,000 169 250 0
2019-06-18 11:36:45 GMT 53.750290 -2.093209 23,000 169 250 0
2019-06-18 11:36:41 GMT 53.755032 -2.094753 23,000 169 250 -192
2019-06-18 11:36:38 GMT 53.757568 -2.095564 23,000 169 250 192
2019-06-18 11:36:35 GMT 53.761086 -2.096611 23,000 169 250 384
2019-06-18 11:36:32 GMT 53.764343 -2.097682 23,000 169 250 -320
2019-06-18 11:36:29 GMT 53.768875 -2.099095 23,000 169 250 -128
2019-06-18 11:36:26 GMT 53.771606 -2.099924 23,000 169 250 0
2019-06-18 11:36:23 GMT 53.775234 -2.101135 23,000 168 249 0
2019-06-18 11:36:20 GMT 53.778076 -2.102024 23,000 168 249 128
2019-06-18 11:36:17 GMT 53.780823 -2.102940 23,000 167 250 0
2019-06-18 11:36:14 GMT 53.784302 -2.104196 23,000 168 250 0
2019-06-18 11:36:10 GMT 53.788967 -2.105821 23,000 167 251 0
2019-06-18 11:36:07 GMT 53.792450 -2.107178 23,000 166 251 -128
2019-06-18 11:36:04 GMT 53.795380 -2.108355 23,000 166 251 -128
2019-06-18 11:36:01 GMT 53.799225 -2.109924 23,000 164 252 64
2019-06-18 11:35:58 GMT 53.802704 -2.111494 23,000 164 252 -64
2019-06-18 11:35:55 GMT 53.810898 -2.115339 23,000 164 252 128
2019-06-18 11:35:52 GMT 53.810898 -2.115339 23,000 164 253 192
2019-06-18 11:35:49 GMT 53.813049 -2.116359 23,000 164 253 128
2019-06-18 11:35:46 GMT 53.816669 -2.118019 23,000 164 253 -256
2019-06-18 11:35:43 GMT 53.820717 -2.119957 23,000 164 253 0
2019-06-18 11:35:40 GMT 53.823074 -2.121068 23,000 164 253 -128
2019-06-18 11:35:37 GMT 53.826351 -2.122542 23,000 164 253 64
2019-06-18 11:35:33 GMT 53.830727 -2.124562 23,000 164 253 0
2019-06-18 11:35:30 GMT 53.835476 -2.126743 23,000 164 252 -64
2019-06-18 11:35:27 GMT 53.837814 -2.127816 23,000 164 252 0
2019-06-18 11:35:23 GMT 53.842804 -2.130092 23,000 165 252 0
2019-06-18 11:35:20 GMT 53.846741 -2.131913 23,000 165 252 0
2019-06-18 11:35:17 GMT 53.849442 -2.133074 23,000 165 252 -192
2019-06-18 11:35:14 GMT 53.852467 -2.134417 23,000 165 252 -192
2019-06-18 11:35:11 GMT 53.856995 -2.136448 23,000 165 252 128
2019-06-18 11:35:08 GMT 53.859356 -2.137487 23,000 165 252 64
2019-06-18 11:35:05 GMT 53.862396 -2.138803 23,000 165 252 0
2019-06-18 11:35:02 GMT 53.865082 -2.139991 23,000 164 252 -64
2019-06-18 11:34:59 GMT 53.868805 -2.141688 23,000 165 252 64
2019-06-18 11:34:56 GMT 53.872719 -2.143465 23,000 164 253 64
2019-06-18 11:34:53 GMT 53.877140 -2.145484 23,000 164 253 64
2019-06-18 11:34:50 GMT 53.879280 -2.146454 23,000 164 253 0
2019-06-18 11:34:47 GMT 53.882866 -2.148231 23,000 164 253 0
2019-06-18 11:34:44 GMT 53.885891 -2.149685 23,000 164 253 0
2019-06-18 11:34:41 GMT 53.892792 -2.153006 23,000 163 253 0
2019-06-18 11:34:38 GMT 53.892792 -2.153006 23,000 164 254 64
2019-06-18 11:34:32 GMT 53.900940 -2.156930 23,000 164 254 64
2019-06-18 11:34:29 GMT 53.903069 -2.157925 23,000 164 255 -64
2019-06-18 11:34:26 GMT 53.906616 -2.159598 23,000 164 255 -64
2019-06-18 11:34:23 GMT 53.910233 -2.161325 23,000 164 254 0
2019-06-18 11:34:20 GMT 53.914673 -2.163286 23,000 165 255 -64
2019-06-18 11:34:17 GMT 53.917080 -2.164387 23,000 165 254 -64
2019-06-18 11:34:14 GMT 53.920624 -2.165876 23,000 166 253 -64
2019-06-18 11:34:11 GMT 53.924156 -2.167296 23,000 167 254 0
2019-06-18 11:34:08 GMT 53.927673 -2.168623 23,000 168 253 0
2019-06-18 11:34:05 GMT 53.931000 -2.169719 23,000 173 250 -64
2019-06-18 11:34:02 GMT 53.935043 -2.170977 23,000 171 251 64
2019-06-18 11:33:58 GMT 53.938820 -2.171981 23,000 173 250 -64
2019-06-18 11:33:55 GMT 53.944427 -2.173017 23,000 175 248 64
2019-06-18 11:33:49 GMT 53.950150 -2.173410 23,000 184 245 -64
2019-06-18 11:33:46 GMT 53.951855 -2.173435 23,000 184 245 -64
2019-06-18 11:33:43 GMT 53.956284 -2.173017 23,000 187 243 0
2019-06-18 11:33:40 GMT 53.958652 -2.172546 23,000 189 243 0
2019-06-18 11:33:37 GMT 53.962421 -2.171577 23,000 189 242 0
2019-06-18 11:33:34 GMT 53.969173 -2.169719 23,000 189 242 0
2019-06-18 11:33:31 GMT 53.969173 -2.169719 23,000 190 242 0
2019-06-18 11:33:28 GMT 53.972153 -2.168911 23,000 190 242 0
2019-06-18 11:33:25 GMT 53.975456 -2.168023 23,000 190 242 0
2019-06-18 11:33:22 GMT 53.980206 -2.166730 23,000 190 242 0
2019-06-18 11:33:18 GMT 53.983429 -2.165798 23,000 190 242 0
2019-06-18 11:33:15 GMT 53.986629 -2.164953 23,000 190 242 0
2019-06-18 11:33:12 GMT 53.990028 -2.163984 23,000 190 242 64
2019-06-18 11:33:09 GMT 53.993683 -2.162973 23,000 190 242 64
2019-06-18 11:33:06 GMT 53.996407 -2.162206 23,000 190 242 0
2019-06-18 11:33:03 GMT 53.999725 -2.161325 23,000 190 242 -128
2019-06-18 11:33:00 GMT 54.003017 -2.160429 23,000 190 240 0
2019-06-18 11:32:57 GMT 54.006454 -2.159441 23,000 190 241 0
2019-06-18 11:32:54 GMT 54.009861 -2.158490 23,000 190 240 -64
2019-06-18 11:32:51 GMT 54.013138 -2.157636 23,000 190 240 0
2019-06-18 11:32:48 GMT 54.016205 -2.156773 23,000 190 240 0
2019-06-18 11:32:45 GMT 54.020149 -2.155663 23,000 189 239 0
2019-06-18 11:32:42 GMT 54.023300 -2.154890 23,000 189 238 0
2019-06-18 11:32:39 GMT 54.026367 -2.154027 23,000 189 238 0
2019-06-18 11:32:36 GMT 54.029617 -2.153163 23,000 189 238 0
2019-06-18 11:32:32 GMT 54.034607 -2.151908 23,000 189 238 64
2019-06-18 11:32:29 GMT 54.036346 -2.151437 23,000 189 238 0
2019-06-18 11:32:26 GMT 54.041050 -2.150331 23,000 188 237 64
2019-06-18 11:32:23 GMT 54.043762 -2.149632 23,000 188 237 64
2019-06-18 11:32:20 GMT 54.047470 -2.148769 23,000 188 237 0
2019-06-18 11:32:17 GMT 54.054409 -2.147262 23,000 192 221 -128
2019-06-18 11:32:14 GMT 54.054409 -2.147262 23,000 188 236 0
2019-06-18 11:32:11 GMT 54.056580 -2.146807 23,000 188 236 0
2019-06-18 11:32:08 GMT 54.060287 -2.146022 23,000 187 236 0
2019-06-18 11:32:05 GMT 54.063862 -2.145323 23,000 187 236 0
2019-06-18 11:32:01 GMT 54.067841 -2.144610 23,000 186 235 0
2019-06-18 11:31:57 GMT 54.071869 -2.143869 23,000 187 227 0
2019-06-18 11:31:53 GMT 54.075966 -2.143223 23,000 186 234 0
2019-06-18 11:31:50 GMT 54.079056 -2.142648 23,000 186 233 -64
2019-06-18 11:31:47 GMT 54.082623 -2.142092 23,000 186 232 0
2019-06-18 11:31:44 GMT 54.085182 -2.141769 23,000 186 232 0
2019-06-18 11:31:41 GMT 54.088951 -2.141203 23,000 185 231 64
2019-06-18 11:31:38 GMT 54.095856 -2.140137 23,000 186 230 0
2019-06-18 11:31:35 GMT 54.095856 -2.140137 23,000 186 229 0
2019-06-18 11:31:29 GMT 54.101852 -2.139117 23,000 194 219 0
2019-06-18 11:31:25 GMT 54.105991 -2.138376 23,000 188 226 0
2019-06-18 11:31:22 GMT 54.108875 -2.137810 23,000 188 226 0
2019-06-18 11:31:19 GMT 54.112228 -2.137164 23,000 188 226 -64
2019-06-18 11:31:15 GMT 54.116043 -2.136213 23,000 189 225 -64
2019-06-18 11:31:12 GMT 54.120235 -2.135064 23,000 190 224 0
2019-06-18 11:31:09 GMT 54.122269 -2.134487 23,000 191 222 0
2019-06-18 11:31:05 GMT 54.126526 -2.133074 23,000 194 219 -64
2019-06-18 11:31:02 GMT 54.129593 -2.131897 23,000 229 210 0
2019-06-18 11:30:59 GMT 54.133224 -2.130297 23,000 197 217 64
2019-06-18 11:30:55 GMT 54.135818 -2.128993 23,000 199 216 0
2019-06-18 11:30:52 GMT 54.139462 -2.126824 23,000 203 214 192
2019-06-18 11:30:49 GMT 54.142593 -2.124599 23,000 205 214 192
2019-06-18 11:30:46 GMT 54.144653 -2.122872 23,000 228 211 0
2019-06-18 11:30:43 GMT 54.146957 -2.120361 23,000 216 212 -64
2019-06-18 11:30:40 GMT 54.149284 -2.117049 23,000 228 211 0
2019-06-18 11:30:37 GMT 54.151005 -2.113899 23,000 228 211 0
2019-06-18 11:30:33 GMT 54.153763 -2.108590 23,000 229 207 -64
2019-06-18 11:30:30 GMT 54.155754 -2.104690 23,000 229 208 0
2019-06-18 11:30:27 GMT 54.158249 -2.099958 23,000 229 207 -64
2019-06-18 11:30:24 GMT 54.159573 -2.097339 23,000 229 205 0
2019-06-18 11:30:21 GMT 54.161407 -2.093680 23,000 230 204 0
2019-06-18 11:30:18 GMT 54.163342 -2.089907 23,000 230 203 0
2019-06-18 11:30:15 GMT 54.165482 -2.085676 23,000 230 202 64
2019-06-18 11:30:12 GMT 54.166836 -2.083040 23,000 230 201 0
2019-06-18 11:30:09 GMT 54.168743 -2.079163 23,000 230 200 0
2019-06-18 11:30:06 GMT 54.170471 -2.075710 23,000 230 197 0
2019-06-18 11:30:03 GMT 54.172119 -2.072414 23,000 231 194 -64
2019-06-18 11:30:00 GMT 54.173813 -2.069039 23,000 231 193 -64
2019-06-18 11:29:57 GMT 54.175865 -2.064864 23,000 231 190 -64
2019-06-18 11:29:54 GMT 54.178024 -2.060407 23,000 231 186 -64
2019-06-18 11:29:51 GMT 54.179401 -2.057513 23,000 231 179 0
2019-06-18 11:29:48 GMT 54.182693 -2.050755 23,000 231 181 0
2019-06-18 11:29:44 GMT 54.182693 -2.050755 23,000 231 179 64
2019-06-18 11:29:41 GMT 54.184113 -2.047773 23,000 232 173 -64
2019-06-18 11:29:38 GMT 54.185989 -2.043849 23,000 232 170 0
2019-06-18 11:29:35 GMT 54.187691 -2.040226 23,000 232 166 64
2019-06-18 11:29:31 GMT 54.190704 -2.033883 23,000 232 163 128
2019-06-18 11:29:28 GMT 54.190704 -2.033883 23,000 232 158 320
2019-06-18 11:29:25 GMT 54.192066 -2.030936 22,900 232 146 1472
2019-06-18 11:29:22 GMT 54.193497 -2.027919 22,900 232 151 704
2019-06-18 11:29:19 GMT 54.194763 -2.025120 22,900 232 153 640
2019-06-18 11:29:15 GMT 54.197044 -2.020192 22,800 232 148 1024
2019-06-18 11:29:12 GMT 54.197891 -2.018345 22,800 232 148 1152
2019-06-18 11:29:08 GMT 54.199860 -2.014186 22,700 232 146 1472
2019-06-18 11:29:05 GMT 54.200821 -2.012068 22,200 231 145 1664
2019-06-18 11:29:02 GMT 54.203384 -2.006653 22,500 229 151 1728
2019-06-18 11:28:59 GMT 54.203384 -2.006653 22,400 232 146 1536
2019-06-18 11:28:56 GMT 54.204803 -2.003671 22,400 232 146 1536
2019-06-18 11:28:53 GMT 54.206356 -2.000481 22,300 231 146 1664
2019-06-18 11:28:50 GMT 54.207054 -1.999027 22,200 231 146 1664
2019-06-18 11:28:47 GMT 54.208496 -1.996038 22,100 231 145 1664
2019-06-18 11:28:44 GMT 54.211075 -1.990801 22,000 230 146 1728
2019-06-18 11:28:41 GMT 54.211075 -1.990801 21,800 230 146 1792
2019-06-18 11:28:38 GMT 54.212631 -1.987584 21,800 230 146 1792
2019-06-18 11:28:35 GMT 54.213684 -1.985465 21,800 230 146 1792
2019-06-18 11:28:32 GMT 54.216660 -1.979501 21,600 230 147 1856
2019-06-18 11:28:29 GMT 54.216660 -1.979501 21,500 230 147 1856
2019-06-18 11:28:26 GMT 54.218086 -1.976489 21,500 230 149 1792
2019-06-18 11:28:22 GMT 54.219345 -1.973985 21,400 230 148 1792
2019-06-18 11:28:19 GMT 54.220642 -1.971418 21,300 230 148 1792
2019-06-18 11:28:16 GMT 54.222137 -1.968411 21,300 230 149 1792
2019-06-18 11:28:13 GMT 54.223434 -1.965768 21,100 230 149 1792
2019-06-18 11:28:10 GMT 54.225082 -1.962472 21,000 230 150 1856
2019-06-18 11:28:07 GMT 54.226234 -1.960252 20,900 230 150 1856
2019-06-18 11:28:04 GMT 54.227959 -1.956859 20,800 230 150 1792
2019-06-18 11:28:01 GMT 54.228840 -1.955082 20,700 229 151 1728
2019-06-18 11:27:58 GMT 54.230667 -1.951564 20,700 229 151 1728
2019-06-18 11:27:55 GMT 54.231354 -1.950235 20,600 229 150 1728
2019-06-18 11:27:52 GMT 54.232956 -1.947091 20,600 229 150 1728
2019-06-18 11:27:48 GMT 54.235245 -1.942697 20,200 229 152 1792
2019-06-18 11:27:45 GMT 54.236244 -1.940703 20,300 229 152 1792
2019-06-18 11:27:42 GMT 54.238152 -1.937148 20,200 229 152 1856
2019-06-18 11:27:37 GMT 54.239960 -1.933594 20,100 229 153 1920
2019-06-18 11:27:34 GMT 54.241837 -1.929984 20,000 229 153 1920
2019-06-18 11:27:31 GMT 54.242805 -1.928101 19,900 229 153 1920
2019-06-18 11:27:27 GMT 54.244904 -1.923941 19,700 229 155 1792
2019-06-18 11:27:24 GMT 54.246094 -1.921666 19,700 229 155 1728
2019-06-18 11:27:21 GMT 54.247601 -1.918730 19,600 229 155 1728
2019-06-18 11:27:18 GMT 54.248886 -1.916173 19,500 229 155 1728
2019-06-18 11:27:15 GMT 54.250301 -1.913318 19,300 229 155 1728
2019-06-18 11:27:12 GMT 54.251450 -1.911150 19,400 229 155 1728
2019-06-18 11:27:09 GMT 54.253422 -1.907259 19,200 230 154 1664
2019-06-18 11:27:06 GMT 54.254791 -1.904558 19,000 230 154 1664
2019-06-18 11:27:03 GMT 54.255981 -1.902204 19,100 230 154 1664
2019-06-18 11:27:00 GMT 54.256958 -1.900231 19,000 230 154 1664
2019-06-18 11:26:57 GMT 54.258408 -1.897339 18,900 230 154 1664
2019-06-18 11:26:54 GMT 54.260101 -1.894043 18,800 229 155 1600
2019-06-18 11:26:51 GMT 54.261848 -1.890618 18,700 229 155 1600
2019-06-18 11:26:47 GMT 54.265274 -1.883920 17,900 229 156 1792
2019-06-18 11:26:43 GMT 54.265274 -1.883920 18,500 229 155 1664
2019-06-18 11:26:40 GMT 54.266689 -1.881086 18,400 229 155 1728
2019-06-18 11:26:37 GMT 54.268066 -1.878348 18,200 229 154 1792
2019-06-18 11:26:34 GMT 54.269302 -1.875994 18,300 229 155 1792
2019-06-18 11:26:31 GMT 54.270721 -1.873247 18,200 229 155 1856
2019-06-18 11:26:28 GMT 54.272415 -1.870018 18,000 229 155 1792
2019-06-18 11:26:24 GMT 54.274750 -1.865479 17,900 229 156 1792
2019-06-18 11:26:21 GMT 54.275764 -1.863556 17,900 229 156 1792
2019-06-18 11:26:18 GMT 54.277542 -1.860142 17,800 229 156 1856
2019-06-18 11:26:15 GMT 54.278744 -1.857855 17,700 229 156 1792
2019-06-18 11:26:12 GMT 54.280094 -1.855191 17,600 229 157 1856
2019-06-18 11:26:07 GMT 54.282486 -1.850631 17,100 229 156 1792
2019-06-18 11:26:04 GMT 54.283958 -1.847784 17,400 229 157 1792
2019-06-18 11:26:00 GMT 54.287384 -1.841260 17,200 229 156 1792
2019-06-18 11:25:57 GMT 54.288757 -1.838594 17,100 229 156 1792
2019-06-18 11:25:54 GMT 54.288757 -1.838594 16,900 229 155 1856
2019-06-18 11:25:51 GMT 54.290012 -1.836132 16,900 229 155 1792
2019-06-18 11:25:47 GMT 54.292191 -1.831889 16,800 230 155 1792
2019-06-18 11:25:44 GMT 54.293690 -1.828974 16,800 229 155 1792
2019-06-18 11:25:41 GMT 54.294991 -1.826394 16,700 229 155 1728
2019-06-18 11:25:38 GMT 54.296341 -1.823730 16,600 230 153 1600
2019-06-18 11:25:34 GMT 54.298187 -1.820015 15,900 230 151 1984
2019-06-18 11:25:31 GMT 54.299698 -1.817026 16,400 230 152 1664
2019-06-18 11:25:28 GMT 54.301231 -1.813993 16,200 230 151 1856
2019-06-18 11:25:23 GMT 54.303085 -1.810240 16,100 230 151 1856
2019-06-18 11:25:20 GMT 54.304276 -1.807897 16,000 230 151 1920
2019-06-18 11:25:17 GMT 54.306072 -1.804338 16,000 230 151 1984
2019-06-18 11:25:14 GMT 54.308956 -1.798512 15,900 230 151 1984
2019-06-18 11:25:11 GMT 54.308956 -1.798512 15,800 230 151 1984
2019-06-18 11:25:08 GMT 54.309841 -1.796764 15,700 229 152 1984
2019-06-18 11:25:05 GMT 54.313156 -1.790206 15,400 229 152 1920
2019-06-18 11:25:02 GMT 54.313156 -1.790206 15,500 229 153 1984
2019-06-18 11:24:58 GMT 54.314758 -1.787136 15,300 229 152 1920
2019-06-18 11:24:55 GMT 54.315941 -1.784862 15,300 229 152 1856
2019-06-18 11:24:51 GMT 54.317780 -1.781320 15,200 228 152 1856
2019-06-18 11:24:48 GMT 54.319656 -1.777766 15,000 228 151 1856
2019-06-18 11:24:45 GMT 54.321121 -1.775019 14,900 228 150 1856
2019-06-18 11:24:42 GMT 54.322128 -1.773161 14,900 228 150 1920
2019-06-18 11:24:39 GMT 54.323387 -1.770796 14,800 228 150 1984
2019-06-18 11:24:36 GMT 54.327072 -1.764113 14,500 227 150 1984
2019-06-18 11:24:33 GMT 54.327072 -1.764113 14,500 227 150 1984
2019-06-18 11:24:27 GMT 54.329041 -1.760478 14,300 227 150 2048
2019-06-18 11:24:24 GMT 54.331909 -1.755316 14,300 227 150 2112
2019-06-18 11:24:21 GMT 54.331909 -1.755316 14,000 227 150 2048
2019-06-18 11:24:18 GMT 54.333618 -1.752158 14,000 227 150 2048
2019-06-18 11:24:15 GMT 54.335075 -1.749573 14,000 227 151 1984
2019-06-18 11:24:12 GMT 54.337029 -1.746077 13,900 227 151 1984
2019-06-18 11:24:08 GMT 54.338562 -1.743353 13,800 227 151 1984
2019-06-18 11:24:02 GMT 54.341263 -1.738586 13,600 226 150 1920
2019-06-18 11:23:59 GMT 54.343002 -1.735517 13,500 226 150 1920
2019-06-18 11:23:53 GMT 54.345978 -1.730347 13,200 226 149 1984
2019-06-18 11:23:49 GMT 54.347992 -1.726873 13,100 226 149 1984
2019-06-18 11:23:45 GMT 54.349319 -1.724611 13,000 226 149 1984
2019-06-18 11:23:42 GMT 54.351135 -1.721358 12,900 226 150 1984
2019-06-18 11:23:36 GMT 54.355232 -1.714200 12,700 226 150 1920
2019-06-18 11:23:33 GMT 54.355232 -1.714200 12,600 226 149 1984
2019-06-18 11:23:30 GMT 54.356861 -1.711287 12,500 226 149 1920
2019-06-18 11:23:27 GMT 54.358521 -1.708374 12,400 227 147 1920
2019-06-18 11:23:24 GMT 54.359699 -1.706210 12,300 227 148 1920
2019-06-18 11:23:21 GMT 54.360947 -1.704093 12,300 227 147 1920
2019-06-18 11:23:18 GMT 54.363144 -1.700134 12,000 227 145 2048
2019-06-18 11:23:15 GMT 54.365158 -1.696418 12,000 227 145 2048
2019-06-18 11:23:09 GMT 54.366730 -1.693476 11,700 228 144 2240
2019-06-18 11:23:05 GMT 54.370174 -1.687150 11,600 227 143 2240
2019-06-18 11:23:02 GMT 54.370174 -1.687150 11,500 227 143 2240
2019-06-18 11:22:58 GMT 54.371521 -1.684624 11,400 227 143 2240
2019-06-18 11:22:55 GMT 54.372967 -1.681990 11,000 227 142 2304
2019-06-18 11:22:51 GMT 54.374817 -1.678566 11,200 227 142 2304
2019-06-18 11:22:48 GMT 54.376099 -1.676142 11,000 228 142 2304
2019-06-18 11:22:45 GMT 54.379303 -1.670245 10,800 228 142 2176
2019-06-18 11:22:41 GMT 54.379303 -1.670245 10,800 228 142 2176
2019-06-18 11:22:38 GMT 54.380539 -1.667983 10,600 228 142 2112
2019-06-18 11:22:35 GMT 54.382046 -1.665178 10,600 228 142 2112
2019-06-18 11:22:32 GMT 54.383652 -1.662167 10,400 228 142 2176
2019-06-18 11:22:28 GMT 54.384979 -1.659685 10,300 228 142 2176
2019-06-18 11:22:25 GMT 54.386791 -1.656272 10,000 228 142 2240
2019-06-18 11:22:22 GMT 54.389072 -1.652111 10,100 228 143 2240
2019-06-18 11:22:19 GMT 54.389072 -1.652111 9,900 228 144 2240
2019-06-18 11:22:15 GMT 54.393822 -1.643288 9,800 228 145 2176
2019-06-18 11:22:09 GMT 54.393822 -1.643288 9,400 228 146 2368
2019-06-18 11:22:04 GMT 54.395824 -1.639543 9,200 228 146 2368
2019-06-18 11:22:01 GMT 54.397499 -1.636380 9,300 228 147 2368
2019-06-18 11:21:56 GMT 54.399353 -1.632924 9,100 228 148 2304
2019-06-18 11:21:53 GMT 54.400620 -1.630471 9,000 228 148 2304
2019-06-18 11:21:50 GMT 54.402248 -1.627391 8,800 228 150 2176
2019-06-18 11:21:47 GMT 54.403645 -1.624811 8,800 228 150 2176
2019-06-18 11:21:44 GMT 54.405029 -1.622261 8,300 228 148 2240
2019-06-18 11:21:40 GMT 54.406998 -1.618464 8,200 228 148 2304
2019-06-18 11:21:35 GMT 54.410431 -1.612082 8,300 228 147 2176
2019-06-18 11:21:32 GMT 54.410431 -1.612082 8,200 228 147 2240
2019-06-18 11:21:29 GMT 54.411793 -1.609497 8,000 228 146 2048
2019-06-18 11:21:26 GMT 54.413189 -1.606834 8,000 228 146 2048
2019-06-18 11:21:22 GMT 54.417343 -1.599157 7,800 228 144 2112
2019-06-18 11:21:18 GMT 54.417564 -1.598760 7,700 228 144 2240
2019-06-18 11:21:10 GMT 54.420822 -1.592856 13,850 226 147 1984
2019-06-18 11:21:07 GMT 54.422264 -1.590271 13,850 227 147 2112
2019-06-18 11:21:03 GMT 54.424454 -1.586359 13,850 224 147 1792
2019-06-18 11:21:00 GMT 54.425629 -1.584293 7,100 225 147 1984
2019-06-18 11:20:57 GMT 54.427963 -1.580416 6,900 224 147 1792
2019-06-18 11:20:54 GMT 54.428421 -1.579608 6,900 224 147 1856
2019-06-18 11:20:51 GMT 54.429703 -1.577507 6,600 224 144 1664
2019-06-18 11:20:48 GMT 54.431530 -1.574624 6,700 224 145 1728
2019-06-18 11:20:45 GMT 54.433159 -1.571960 6,600 224 143 1536
2019-06-18 11:20:41 GMT 54.434555 -1.569547 6,500 225 141 1600
2019-06-18 11:20:37 GMT 54.436478 -1.566279 6,400 226 137 2240
2019-06-18 11:20:31 GMT 54.439163 -1.561640 6,200 230 136 1664
2019-06-18 11:20:27 GMT 54.440964 -1.557393 6,000 240 133 2112
2019-06-18 11:20:21 GMT 54.442566 -1.552465 14,625 237 133 2112
2019-06-18 11:20:16 GMT 54.444763 -1.547941 5,600 225 134 2560
2019-06-18 11:20:13 GMT 54.446148 -1.545577 5,500 225 135 2624
2019-06-18 11:20:10 GMT 54.446869 -1.544306 5,400 225 135 2688
2019-06-18 11:20:05 GMT 54.449432 -1.540025 5,200 224 138 2624
2019-06-18 11:20:00 GMT 54.451721 -1.536228 4,900 225 138 2688
2019-06-18 11:19:54 GMT 54.454193 -1.532027 4,700 225 138 2816
2019-06-18 11:19:49 GMT 54.456528 -1.527932 4,500 226 139 2688
2019-06-18 11:19:44 GMT 54.459320 -1.522980 4,200 228 140 2688
2019-06-18 11:19:39 GMT 54.461014 -1.519829 4,000 228 142 2624
2019-06-18 11:19:34 GMT 54.463280 -1.515531 3,800 229 145 2496
2019-06-18 11:19:28 GMT 54.465683 -1.510862 3,600 230 146 2240
2019-06-18 11:19:24 GMT 54.467934 -1.506292 3,400 230 146 2048
2019-06-18 11:19:18 GMT 54.470074 -1.501798 3,200 230 146 2240
2019-06-18 11:19:12 GMT 54.472820 -1.496471 3,000 228 145 2496
2019-06-18 11:19:08 GMT 54.474964 -1.492642 2,800 226 144 2432
2019-06-18 11:19:03 GMT 54.477448 -1.488324 2,600 226 144 2560
2019-06-18 11:18:57 GMT 54.479897 -1.484070 2,300 225 145 2496
2019-06-18 11:18:52 GMT 54.482410 -1.479742 2,100 226 145 2368
2019-06-18 11:18:47 GMT 54.484818 -1.475480 1,900 227 145 2176
2019-06-18 11:18:41 GMT 54.487534 -1.470420 1,700 228 145 2304
2019-06-18 11:18:36 GMT 54.489815 -1.466092 1,500 229 148 2240
2019-06-18 11:18:31 GMT 54.492142 -1.461681 1,300 228 148 2048
2019-06-18 11:18:26 GMT 54.494469 -1.457270 1,200 228 148 1920
2019-06-18 11:18:20 GMT 54.497307 -1.451943 1,000 229 148 1984
2019-06-18 11:18:14 GMT 54.499821 -1.447116 800 228 144 1856
2019-06-18 11:18:10 GMT 54.501450 -1.443953 700 228 141 1984

Making use of Plane Finder data

You are free to use the raw flight data, aircraft information and images provided in this report for your own purposes provided the data is correctly attributed to Plane Finder. We ask that you please credit Plane Finder and link to planefinder.net in close proximity to the content.

Optionally one of the following logos (no smaller then 150x24px) can be used and must link to planefinder.net

Embedding the Plane Finder map

You are welcome to embed the Plane Finder playback map on your website to offer visitors a more interactive experience. We suggest using the following HTML code:

<iframe src="//planefinder.net/data/report/MDI2-G-IASA-7700-squawk-2019-06-18/map" width="800" height="600" seamless="seamless"></iframe>

Where our data comes from

Plane Finder has a global network of data feeds and antenna radars that receive data broadcast directly from aircraft. The primary technologies used are ADS-B and MLAT. We also show feeds from the FAA and a FLARM glider feed.

Click here to find out more about the Plane Finder network.

How we collect our data